<?xml version="1.0" encoding="UTF-8" standalone="no" ?>
<gpx xmlns="http://www.topografix.com/GPX/1/1" xmlns:xsi="http://www.w3.org/2001/XMLSchema-instance" xsi:schemaLocation="http://www.topografix.com/GPX/1/1 http://www.topografix.com/GPX/1/1/gpx.xsd" version="1.1" creator="VisuGPX - https://www.visugpx.com">
  <metadata>
    <name>Raid 6 jours du 05 au 10.08.2018 - Méolans - Allos 1ere étape</name>
  </metadata>
  <trk>
    <name><![CDATA[9058258-Méolans - Allos 1ere étape]]></name>
    <extensions>
      <line xmlns="http://www.topografix.com/GPX/gpx_style/0/2">
        <color>0000FF</color>
        <width>4</width>
      </line>
    </extensions>
    <trkseg>
      <trkpt lat="44.39825" lon="6.50776">
        <ele>1080</ele>
        <time>2022-06-08T20:48:39Z</time>
      </trkpt>
      <trkpt lat="44.39822" lon="6.50773">
        <ele>1081</ele>
        <time>2022-06-08T20:48:40Z</time>
      </trkpt>
      <trkpt lat="44.39825" lon="6.50774">
        <ele>1079</ele>
        <time>2022-06-08T20:48:41Z</time>
      </trkpt>
      <trkpt lat="44.39827" lon="6.5078">
        <ele>1079</ele>
        <time>2022-06-08T20:48:42Z</time>
      </trkpt>
      <trkpt lat="44.39822" lon="6.5078">
        <ele>1082</ele>
        <time>2022-06-08T20:48:43Z</time>
      </trkpt>
      <trkpt lat="44.39828" lon="6.5078">
        <ele>1079</ele>
        <time>2022-06-08T20:48:44Z</time>
      </trkpt>
      <trkpt lat="44.39825" lon="6.50779">
        <ele>1080</ele>
        <time>2022-06-08T20:48:45Z</time>
      </trkpt>
      <trkpt lat="44.39819" lon="6.50745">
        <ele>1079</ele>
        <time>2022-06-08T20:48:51Z</time>
      </trkpt>
      <trkpt lat="44.3982" lon="6.50721">
        <ele>1079</ele>
        <time>2022-06-08T20:48:55Z</time>
      </trkpt>
      <trkpt lat="44.39802" lon="6.50689">
        <ele>1082</ele>
        <time>2022-06-08T20:49:02Z</time>
      </trkpt>
      <trkpt lat="44.39785" lon="6.50675">
        <ele>1083</ele>
        <time>2022-06-08T20:49:06Z</time>
      </trkpt>
      <trkpt lat="44.39778" lon="6.50664">
        <ele>1082</ele>
        <time>2022-06-08T20:49:09Z</time>
      </trkpt>
      <trkpt lat="44.3977" lon="6.50648">
        <ele>1080</ele>
        <time>2022-06-08T20:49:12Z</time>
      </trkpt>
      <trkpt lat="44.39765" lon="6.50627">
        <ele>1078</ele>
        <time>2022-06-08T20:49:16Z</time>
      </trkpt>
      <trkpt lat="44.39767" lon="6.50579">
        <ele>1072</ele>
        <time>2022-06-08T20:49:24Z</time>
      </trkpt>
      <trkpt lat="44.39764" lon="6.5053">
        <ele>1071</ele>
        <time>2022-06-08T20:49:32Z</time>
      </trkpt>
      <trkpt lat="44.39771" lon="6.50507">
        <ele>1069</ele>
        <time>2022-06-08T20:49:36Z</time>
      </trkpt>
      <trkpt lat="44.39789" lon="6.5048">
        <ele>1063</ele>
        <time>2022-06-08T20:49:42Z</time>
      </trkpt>
      <trkpt lat="44.39803" lon="6.50437">
        <ele>1056</ele>
        <time>2022-06-08T20:49:50Z</time>
      </trkpt>
      <trkpt lat="44.39817" lon="6.5033">
        <ele>1046</ele>
        <time>2022-06-08T20:50:08Z</time>
      </trkpt>
      <trkpt lat="44.39821" lon="6.50272">
        <ele>1040</ele>
        <time>2022-06-08T20:50:18Z</time>
      </trkpt>
      <trkpt lat="44.39817" lon="6.50159">
        <ele>1029</ele>
        <time>2022-06-08T20:50:37Z</time>
      </trkpt>
      <trkpt lat="44.39802" lon="6.50104">
        <ele>1029</ele>
        <time>2022-06-08T20:50:47Z</time>
      </trkpt>
      <trkpt lat="44.39766" lon="6.49994">
        <ele>1023</ele>
        <time>2022-06-08T20:51:07Z</time>
      </trkpt>
      <trkpt lat="44.39753" lon="6.49947">
        <ele>1019</ele>
        <time>2022-06-08T20:51:15Z</time>
      </trkpt>
      <trkpt lat="44.39752" lon="6.49936">
        <ele>1018</ele>
        <time>2022-06-08T20:51:17Z</time>
      </trkpt>
      <trkpt lat="44.39755" lon="6.49857">
        <ele>1012</ele>
        <time>2022-06-08T20:51:30Z</time>
      </trkpt>
      <trkpt lat="44.39772" lon="6.49811">
        <ele>1008</ele>
        <time>2022-06-08T20:51:39Z</time>
      </trkpt>
      <trkpt lat="44.39781" lon="6.49743">
        <ele>1007</ele>
        <time>2022-06-08T20:51:50Z</time>
      </trkpt>
      <trkpt lat="44.39798" lon="6.49674">
        <ele>1008</ele>
        <time>2022-06-08T20:52:03Z</time>
      </trkpt>
      <trkpt lat="44.39802" lon="6.49669">
        <ele>1008</ele>
        <time>2022-06-08T20:52:04Z</time>
      </trkpt>
      <trkpt lat="44.398" lon="6.49663">
        <ele>1008</ele>
        <time>2022-06-08T20:52:05Z</time>
      </trkpt>
      <trkpt lat="44.39797" lon="6.49667">
        <ele>1009</ele>
        <time>2022-06-08T20:52:06Z</time>
      </trkpt>
      <trkpt lat="44.39799" lon="6.49665">
        <ele>1008</ele>
        <time>2022-06-08T20:52:07Z</time>
      </trkpt>
      <trkpt lat="44.39798" lon="6.49662">
        <ele>1008</ele>
        <time>2022-06-08T20:52:07Z</time>
      </trkpt>
      <trkpt lat="44.39801" lon="6.49665">
        <ele>1008</ele>
        <time>2022-06-08T20:52:08Z</time>
      </trkpt>
      <trkpt lat="44.39802" lon="6.49661">
        <ele>1008</ele>
        <time>2022-06-08T20:52:09Z</time>
      </trkpt>
      <trkpt lat="44.39804" lon="6.49623">
        <ele>1005</ele>
        <time>2022-06-08T20:52:15Z</time>
      </trkpt>
      <trkpt lat="44.39802" lon="6.49609">
        <ele>1004</ele>
        <time>2022-06-08T20:52:17Z</time>
      </trkpt>
      <trkpt lat="44.39792" lon="6.49579">
        <ele>1003</ele>
        <time>2022-06-08T20:52:23Z</time>
      </trkpt>
      <trkpt lat="44.39775" lon="6.49549">
        <ele>1004</ele>
        <time>2022-06-08T20:52:29Z</time>
      </trkpt>
      <trkpt lat="44.39772" lon="6.49495">
        <ele>1001</ele>
        <time>2022-06-08T20:52:38Z</time>
      </trkpt>
      <trkpt lat="44.39749" lon="6.49441">
        <ele>996</ele>
        <time>2022-06-08T20:52:49Z</time>
      </trkpt>
      <trkpt lat="44.39724" lon="6.494">
        <ele>1003</ele>
        <time>2022-06-08T20:52:58Z</time>
      </trkpt>
      <trkpt lat="44.3969" lon="6.4929">
        <ele>1015</ele>
        <time>2022-06-08T20:53:18Z</time>
      </trkpt>
      <trkpt lat="44.39683" lon="6.49249">
        <ele>1017</ele>
        <time>2022-06-08T20:53:25Z</time>
      </trkpt>
      <trkpt lat="44.39685" lon="6.4921">
        <ele>1012</ele>
        <time>2022-06-08T20:53:31Z</time>
      </trkpt>
      <trkpt lat="44.39675" lon="6.49148">
        <ele>1008</ele>
        <time>2022-06-08T20:53:42Z</time>
      </trkpt>
      <trkpt lat="44.39676" lon="6.49074">
        <ele>990</ele>
        <time>2022-06-08T20:53:54Z</time>
      </trkpt>
      <trkpt lat="44.39666" lon="6.49044">
        <ele>988</ele>
        <time>2022-06-08T20:54:00Z</time>
      </trkpt>
      <trkpt lat="44.39637" lon="6.48998">
        <ele>1002</ele>
        <time>2022-06-08T20:54:10Z</time>
      </trkpt>
      <trkpt lat="44.39625" lon="6.48965">
        <ele>1005</ele>
        <time>2022-06-08T20:54:16Z</time>
      </trkpt>
      <trkpt lat="44.39596" lon="6.48832">
        <ele>1004</ele>
        <time>2022-06-08T20:54:40Z</time>
      </trkpt>
      <trkpt lat="44.39597" lon="6.4881">
        <ele>1000</ele>
        <time>2022-06-08T20:54:43Z</time>
      </trkpt>
      <trkpt lat="44.39608" lon="6.48774">
        <ele>991</ele>
        <time>2022-06-08T20:54:50Z</time>
      </trkpt>
      <trkpt lat="44.39604" lon="6.48739">
        <ele>988</ele>
        <time>2022-06-08T20:54:56Z</time>
      </trkpt>
      <trkpt lat="44.39604" lon="6.48705">
        <ele>986</ele>
        <time>2022-06-08T20:55:01Z</time>
      </trkpt>
      <trkpt lat="44.39586" lon="6.48666">
        <ele>987</ele>
        <time>2022-06-08T20:55:09Z</time>
      </trkpt>
      <trkpt lat="44.39549" lon="6.48543">
        <ele>997</ele>
        <time>2022-06-08T20:55:31Z</time>
      </trkpt>
      <trkpt lat="44.39547" lon="6.48526">
        <ele>997</ele>
        <time>2022-06-08T20:55:34Z</time>
      </trkpt>
      <trkpt lat="44.39549" lon="6.48509">
        <ele>994</ele>
        <time>2022-06-08T20:55:37Z</time>
      </trkpt>
      <trkpt lat="44.3956" lon="6.48461">
        <ele>985</ele>
        <time>2022-06-08T20:55:45Z</time>
      </trkpt>
      <trkpt lat="44.39561" lon="6.48386">
        <ele>983</ele>
        <time>2022-06-08T20:55:58Z</time>
      </trkpt>
      <trkpt lat="44.39545" lon="6.48282">
        <ele>981</ele>
        <time>2022-06-08T20:56:16Z</time>
      </trkpt>
      <trkpt lat="44.39498" lon="6.48171">
        <ele>976</ele>
        <time>2022-06-08T20:56:37Z</time>
      </trkpt>
      <trkpt lat="44.39496" lon="6.48159">
        <ele>975</ele>
        <time>2022-06-08T20:56:39Z</time>
      </trkpt>
      <trkpt lat="44.39499" lon="6.48101">
        <ele>974</ele>
        <time>2022-06-08T20:56:49Z</time>
      </trkpt>
      <trkpt lat="44.39514" lon="6.48036">
        <ele>976</ele>
        <time>2022-06-08T20:57:00Z</time>
      </trkpt>
      <trkpt lat="44.39596" lon="6.47899">
        <ele>976</ele>
        <time>2022-06-08T20:57:30Z</time>
      </trkpt>
      <trkpt lat="44.39631" lon="6.47851">
        <ele>974</ele>
        <time>2022-06-08T20:57:42Z</time>
      </trkpt>
      <trkpt lat="44.39645" lon="6.47817">
        <ele>974</ele>
        <time>2022-06-08T20:57:48Z</time>
      </trkpt>
      <trkpt lat="44.39643" lon="6.47813">
        <ele>975</ele>
        <time>2022-06-08T20:57:49Z</time>
      </trkpt>
      <trkpt lat="44.39639" lon="6.47812">
        <ele>976</ele>
        <time>2022-06-08T20:57:50Z</time>
      </trkpt>
      <trkpt lat="44.39606" lon="6.47825">
        <ele>984</ele>
        <time>2022-06-08T20:57:58Z</time>
      </trkpt>
      <trkpt lat="44.39585" lon="6.47829">
        <ele>990</ele>
        <time>2022-06-08T20:58:03Z</time>
      </trkpt>
      <trkpt lat="44.39543" lon="6.47872">
        <ele>994</ele>
        <time>2022-06-08T20:58:15Z</time>
      </trkpt>
      <trkpt lat="44.39514" lon="6.47888">
        <ele>999</ele>
        <time>2022-06-08T20:58:22Z</time>
      </trkpt>
      <trkpt lat="44.39468" lon="6.47897">
        <ele>1008</ele>
        <time>2022-06-08T20:58:33Z</time>
      </trkpt>
      <trkpt lat="44.39443" lon="6.47909">
        <ele>1011</ele>
        <time>2022-06-08T20:58:39Z</time>
      </trkpt>
      <trkpt lat="44.39382" lon="6.4798">
        <ele>1008</ele>
        <time>2022-06-08T20:58:58Z</time>
      </trkpt>
      <trkpt lat="44.39358" lon="6.47989">
        <ele>1010</ele>
        <time>2022-06-08T20:59:04Z</time>
      </trkpt>
      <trkpt lat="44.39328" lon="6.47987">
        <ele>1016</ele>
        <time>2022-06-08T20:59:11Z</time>
      </trkpt>
      <trkpt lat="44.39303" lon="6.47978">
        <ele>1018</ele>
        <time>2022-06-08T20:59:17Z</time>
      </trkpt>
      <trkpt lat="44.39277" lon="6.47964">
        <ele>1022</ele>
        <time>2022-06-08T20:59:23Z</time>
      </trkpt>
      <trkpt lat="44.39249" lon="6.47947">
        <ele>1026</ele>
        <time>2022-06-08T20:59:30Z</time>
      </trkpt>
      <trkpt lat="44.39228" lon="6.47917">
        <ele>1029</ele>
        <time>2022-06-08T20:59:37Z</time>
      </trkpt>
      <trkpt lat="44.39199" lon="6.47854">
        <ele>1045</ele>
        <time>2022-06-08T20:59:50Z</time>
      </trkpt>
      <trkpt lat="44.39148" lon="6.47779">
        <ele>1059</ele>
        <time>2022-06-08T21:00:07Z</time>
      </trkpt>
      <trkpt lat="44.39151" lon="6.47773">
        <ele>1062</ele>
        <time>2022-06-08T21:00:08Z</time>
      </trkpt>
      <trkpt lat="44.39148" lon="6.47773">
        <ele>1061</ele>
        <time>2022-06-08T21:00:09Z</time>
      </trkpt>
      <trkpt lat="44.39148" lon="6.47775">
        <ele>1060</ele>
        <time>2022-06-08T21:00:09Z</time>
      </trkpt>
      <trkpt lat="44.39149" lon="6.47772">
        <ele>1062</ele>
        <time>2022-06-08T21:00:10Z</time>
      </trkpt>
      <trkpt lat="44.39142" lon="6.47768">
        <ele>1061</ele>
        <time>2022-06-08T21:00:12Z</time>
      </trkpt>
      <trkpt lat="44.39066" lon="6.47659">
        <ele>1072</ele>
        <time>2022-06-08T21:00:37Z</time>
      </trkpt>
      <trkpt lat="44.39012" lon="6.47597">
        <ele>1074</ele>
        <time>2022-06-08T21:00:54Z</time>
      </trkpt>
      <trkpt lat="44.38939" lon="6.47501">
        <ele>1085</ele>
        <time>2022-06-08T21:01:17Z</time>
      </trkpt>
      <trkpt lat="44.38908" lon="6.47467">
        <ele>1087</ele>
        <time>2022-06-08T21:01:26Z</time>
      </trkpt>
      <trkpt lat="44.38862" lon="6.47401">
        <ele>1096</ele>
        <time>2022-06-08T21:01:42Z</time>
      </trkpt>
      <trkpt lat="44.3883" lon="6.47369">
        <ele>1094</ele>
        <time>2022-06-08T21:01:51Z</time>
      </trkpt>
      <trkpt lat="44.38802" lon="6.47328">
        <ele>1101</ele>
        <time>2022-06-08T21:02:00Z</time>
      </trkpt>
      <trkpt lat="44.38771" lon="6.47295">
        <ele>1106</ele>
        <time>2022-06-08T21:02:09Z</time>
      </trkpt>
      <trkpt lat="44.38729" lon="6.47299">
        <ele>1094</ele>
        <time>2022-06-08T21:02:19Z</time>
      </trkpt>
      <trkpt lat="44.38671" lon="6.4726">
        <ele>1099</ele>
        <time>2022-06-08T21:02:34Z</time>
      </trkpt>
      <trkpt lat="44.38644" lon="6.47234">
        <ele>1103</ele>
        <time>2022-06-08T21:02:42Z</time>
      </trkpt>
      <trkpt lat="44.38621" lon="6.47201">
        <ele>1109</ele>
        <time>2022-06-08T21:02:49Z</time>
      </trkpt>
      <trkpt lat="44.38602" lon="6.4716">
        <ele>1115</ele>
        <time>2022-06-08T21:02:58Z</time>
      </trkpt>
      <trkpt lat="44.38553" lon="6.47104">
        <ele>1122</ele>
        <time>2022-06-08T21:03:12Z</time>
      </trkpt>
      <trkpt lat="44.3854" lon="6.47078">
        <ele>1126</ele>
        <time>2022-06-08T21:03:18Z</time>
      </trkpt>
      <trkpt lat="44.38493" lon="6.47043">
        <ele>1126</ele>
        <time>2022-06-08T21:03:30Z</time>
      </trkpt>
      <trkpt lat="44.38417" lon="6.46973">
        <ele>1142</ele>
        <time>2022-06-08T21:03:51Z</time>
      </trkpt>
      <trkpt lat="44.38347" lon="6.46928">
        <ele>1151</ele>
        <time>2022-06-08T21:04:09Z</time>
      </trkpt>
      <trkpt lat="44.38295" lon="6.46888">
        <ele>1151</ele>
        <time>2022-06-08T21:04:23Z</time>
      </trkpt>
      <trkpt lat="44.38285" lon="6.46855">
        <ele>1156</ele>
        <time>2022-06-08T21:04:29Z</time>
      </trkpt>
      <trkpt lat="44.38279" lon="6.46812">
        <ele>1166</ele>
        <time>2022-06-08T21:04:37Z</time>
      </trkpt>
      <trkpt lat="44.38267" lon="6.46777">
        <ele>1173</ele>
        <time>2022-06-08T21:04:43Z</time>
      </trkpt>
      <trkpt lat="44.38247" lon="6.46744">
        <ele>1177</ele>
        <time>2022-06-08T21:04:50Z</time>
      </trkpt>
      <trkpt lat="44.38229" lon="6.46739">
        <ele>1177</ele>
        <time>2022-06-08T21:04:54Z</time>
      </trkpt>
      <trkpt lat="44.38193" lon="6.46775">
        <ele>1165</ele>
        <time>2022-06-08T21:05:05Z</time>
      </trkpt>
      <trkpt lat="44.38168" lon="6.46751">
        <ele>1169</ele>
        <time>2022-06-08T21:05:12Z</time>
      </trkpt>
      <trkpt lat="44.38132" lon="6.46706">
        <ele>1179</ele>
        <time>2022-06-08T21:05:23Z</time>
      </trkpt>
      <trkpt lat="44.38113" lon="6.46689">
        <ele>1183</ele>
        <time>2022-06-08T21:05:28Z</time>
      </trkpt>
      <trkpt lat="44.38084" lon="6.46677">
        <ele>1186</ele>
        <time>2022-06-08T21:05:36Z</time>
      </trkpt>
      <trkpt lat="44.38001" lon="6.4663">
        <ele>1196</ele>
        <time>2022-06-08T21:05:56Z</time>
      </trkpt>
      <trkpt lat="44.37965" lon="6.4662">
        <ele>1198</ele>
        <time>2022-06-08T21:06:05Z</time>
      </trkpt>
      <trkpt lat="44.37861" lon="6.46617">
        <ele>1197</ele>
        <time>2022-06-08T21:06:29Z</time>
      </trkpt>
      <trkpt lat="44.37841" lon="6.46605">
        <ele>1200</ele>
        <time>2022-06-08T21:06:34Z</time>
      </trkpt>
      <trkpt lat="44.37812" lon="6.46531">
        <ele>1215</ele>
        <time>2022-06-08T21:06:48Z</time>
      </trkpt>
      <trkpt lat="44.37771" lon="6.46578">
        <ele>1210</ele>
        <time>2022-06-08T21:07:01Z</time>
      </trkpt>
      <trkpt lat="44.37738" lon="6.46571">
        <ele>1211</ele>
        <time>2022-06-08T21:07:09Z</time>
      </trkpt>
      <trkpt lat="44.37673" lon="6.46545">
        <ele>1208</ele>
        <time>2022-06-08T21:07:24Z</time>
      </trkpt>
      <trkpt lat="44.3764" lon="6.46468">
        <ele>1218</ele>
        <time>2022-06-08T21:07:39Z</time>
      </trkpt>
      <trkpt lat="44.37612" lon="6.46436">
        <ele>1223</ele>
        <time>2022-06-08T21:07:48Z</time>
      </trkpt>
      <trkpt lat="44.37582" lon="6.46413">
        <ele>1229</ele>
        <time>2022-06-08T21:07:56Z</time>
      </trkpt>
      <trkpt lat="44.37554" lon="6.46408">
        <ele>1234</ele>
        <time>2022-06-08T21:08:02Z</time>
      </trkpt>
      <trkpt lat="44.37524" lon="6.46407">
        <ele>1238</ele>
        <time>2022-06-08T21:08:09Z</time>
      </trkpt>
      <trkpt lat="44.37493" lon="6.46416">
        <ele>1240</ele>
        <time>2022-06-08T21:08:17Z</time>
      </trkpt>
      <trkpt lat="44.3745" lon="6.46447">
        <ele>1234</ele>
        <time>2022-06-08T21:08:28Z</time>
      </trkpt>
      <trkpt lat="44.37428" lon="6.46452">
        <ele>1237</ele>
        <time>2022-06-08T21:08:33Z</time>
      </trkpt>
      <trkpt lat="44.37399" lon="6.46466">
        <ele>1234</ele>
        <time>2022-06-08T21:08:40Z</time>
      </trkpt>
      <trkpt lat="44.37369" lon="6.4646">
        <ele>1235</ele>
        <time>2022-06-08T21:08:48Z</time>
      </trkpt>
      <trkpt lat="44.37338" lon="6.46393">
        <ele>1250</ele>
        <time>2022-06-08T21:09:01Z</time>
      </trkpt>
      <trkpt lat="44.3732" lon="6.46369">
        <ele>1257</ele>
        <time>2022-06-08T21:09:07Z</time>
      </trkpt>
      <trkpt lat="44.37316" lon="6.46369">
        <ele>1258</ele>
        <time>2022-06-08T21:09:08Z</time>
      </trkpt>
      <trkpt lat="44.37311" lon="6.46374">
        <ele>1257</ele>
        <time>2022-06-08T21:09:09Z</time>
      </trkpt>
      <trkpt lat="44.37306" lon="6.46388">
        <ele>1255</ele>
        <time>2022-06-08T21:09:12Z</time>
      </trkpt>
      <trkpt lat="44.37285" lon="6.46428">
        <ele>1247</ele>
        <time>2022-06-08T21:09:20Z</time>
      </trkpt>
      <trkpt lat="44.37244" lon="6.46435">
        <ele>1248</ele>
        <time>2022-06-08T21:09:30Z</time>
      </trkpt>
      <trkpt lat="44.37203" lon="6.4642">
        <ele>1252</ele>
        <time>2022-06-08T21:09:40Z</time>
      </trkpt>
      <trkpt lat="44.3713" lon="6.46412">
        <ele>1255</ele>
        <time>2022-06-08T21:09:57Z</time>
      </trkpt>
      <trkpt lat="44.3712" lon="6.46416">
        <ele>1254</ele>
        <time>2022-06-08T21:09:59Z</time>
      </trkpt>
      <trkpt lat="44.37107" lon="6.46428">
        <ele>1252</ele>
        <time>2022-06-08T21:10:03Z</time>
      </trkpt>
      <trkpt lat="44.36999" lon="6.46557">
        <ele>1246</ele>
        <time>2022-06-08T21:10:36Z</time>
      </trkpt>
      <trkpt lat="44.36987" lon="6.46563">
        <ele>1247</ele>
        <time>2022-06-08T21:10:39Z</time>
      </trkpt>
      <trkpt lat="44.36978" lon="6.46562">
        <ele>1249</ele>
        <time>2022-06-08T21:10:41Z</time>
      </trkpt>
      <trkpt lat="44.36957" lon="6.46548">
        <ele>1256</ele>
        <time>2022-06-08T21:10:46Z</time>
      </trkpt>
      <trkpt lat="44.36935" lon="6.46539">
        <ele>1262</ele>
        <time>2022-06-08T21:10:52Z</time>
      </trkpt>
      <trkpt lat="44.36926" lon="6.46543">
        <ele>1263</ele>
        <time>2022-06-08T21:10:54Z</time>
      </trkpt>
      <trkpt lat="44.36909" lon="6.46559">
        <ele>1264</ele>
        <time>2022-06-08T21:10:59Z</time>
      </trkpt>
      <trkpt lat="44.36881" lon="6.46623">
        <ele>1266</ele>
        <time>2022-06-08T21:11:11Z</time>
      </trkpt>
      <trkpt lat="44.36879" lon="6.4664">
        <ele>1265</ele>
        <time>2022-06-08T21:11:14Z</time>
      </trkpt>
      <trkpt lat="44.36884" lon="6.46656">
        <ele>1262</ele>
        <time>2022-06-08T21:11:17Z</time>
      </trkpt>
      <trkpt lat="44.36908" lon="6.46692">
        <ele>1263</ele>
        <time>2022-06-08T21:11:25Z</time>
      </trkpt>
      <trkpt lat="44.36935" lon="6.46696">
        <ele>1264</ele>
        <time>2022-06-08T21:11:32Z</time>
      </trkpt>
      <trkpt lat="44.36942" lon="6.46699">
        <ele>1265</ele>
        <time>2022-06-08T21:11:33Z</time>
      </trkpt>
      <trkpt lat="44.36942" lon="6.46705">
        <ele>1268</ele>
        <time>2022-06-08T21:11:34Z</time>
      </trkpt>
      <trkpt lat="44.3692" lon="6.46717">
        <ele>1269</ele>
        <time>2022-06-08T21:11:40Z</time>
      </trkpt>
      <trkpt lat="44.36848" lon="6.468">
        <ele>1282</ele>
        <time>2022-06-08T21:12:02Z</time>
      </trkpt>
      <trkpt lat="44.3683" lon="6.46826">
        <ele>1283</ele>
        <time>2022-06-08T21:12:08Z</time>
      </trkpt>
      <trkpt lat="44.36808" lon="6.46888">
        <ele>1294</ele>
        <time>2022-06-08T21:12:19Z</time>
      </trkpt>
      <trkpt lat="44.36782" lon="6.4692">
        <ele>1293</ele>
        <time>2022-06-08T21:12:27Z</time>
      </trkpt>
      <trkpt lat="44.36716" lon="6.46976">
        <ele>1293</ele>
        <time>2022-06-08T21:12:45Z</time>
      </trkpt>
      <trkpt lat="44.36689" lon="6.47003">
        <ele>1293</ele>
        <time>2022-06-08T21:12:53Z</time>
      </trkpt>
      <trkpt lat="44.36631" lon="6.47077">
        <ele>1305</ele>
        <time>2022-06-08T21:13:11Z</time>
      </trkpt>
      <trkpt lat="44.366" lon="6.4713">
        <ele>1311</ele>
        <time>2022-06-08T21:13:23Z</time>
      </trkpt>
      <trkpt lat="44.36584" lon="6.47167">
        <ele>1311</ele>
        <time>2022-06-08T21:13:30Z</time>
      </trkpt>
      <trkpt lat="44.36535" lon="6.47249">
        <ele>1328</ele>
        <time>2022-06-08T21:13:48Z</time>
      </trkpt>
      <trkpt lat="44.36515" lon="6.47278">
        <ele>1331</ele>
        <time>2022-06-08T21:13:55Z</time>
      </trkpt>
      <trkpt lat="44.36494" lon="6.47299">
        <ele>1329</ele>
        <time>2022-06-08T21:14:01Z</time>
      </trkpt>
      <trkpt lat="44.36447" lon="6.47355">
        <ele>1334</ele>
        <time>2022-06-08T21:14:15Z</time>
      </trkpt>
      <trkpt lat="44.36408" lon="6.47427">
        <ele>1341</ele>
        <time>2022-06-08T21:14:30Z</time>
      </trkpt>
      <trkpt lat="44.36391" lon="6.47454">
        <ele>1349</ele>
        <time>2022-06-08T21:14:36Z</time>
      </trkpt>
      <trkpt lat="44.36369" lon="6.47478">
        <ele>1350</ele>
        <time>2022-06-08T21:14:43Z</time>
      </trkpt>
      <trkpt lat="44.36342" lon="6.47497">
        <ele>1344</ele>
        <time>2022-06-08T21:14:50Z</time>
      </trkpt>
      <trkpt lat="44.36312" lon="6.47525">
        <ele>1349</ele>
        <time>2022-06-08T21:14:58Z</time>
      </trkpt>
      <trkpt lat="44.3627" lon="6.47554">
        <ele>1352</ele>
        <time>2022-06-08T21:15:09Z</time>
      </trkpt>
      <trkpt lat="44.3623" lon="6.47586">
        <ele>1356</ele>
        <time>2022-06-08T21:15:20Z</time>
      </trkpt>
      <trkpt lat="44.3619" lon="6.4761">
        <ele>1365</ele>
        <time>2022-06-08T21:15:30Z</time>
      </trkpt>
      <trkpt lat="44.36169" lon="6.47617">
        <ele>1366</ele>
        <time>2022-06-08T21:15:35Z</time>
      </trkpt>
      <trkpt lat="44.36121" lon="6.4763">
        <ele>1367</ele>
        <time>2022-06-08T21:15:46Z</time>
      </trkpt>
      <trkpt lat="44.36099" lon="6.47629">
        <ele>1365</ele>
        <time>2022-06-08T21:15:52Z</time>
      </trkpt>
      <trkpt lat="44.36079" lon="6.47646">
        <ele>1369</ele>
        <time>2022-06-08T21:15:57Z</time>
      </trkpt>
      <trkpt lat="44.36043" lon="6.4766">
        <ele>1370</ele>
        <time>2022-06-08T21:16:06Z</time>
      </trkpt>
      <trkpt lat="44.35992" lon="6.47685">
        <ele>1373</ele>
        <time>2022-06-08T21:16:18Z</time>
      </trkpt>
      <trkpt lat="44.35959" lon="6.47709">
        <ele>1379</ele>
        <time>2022-06-08T21:16:27Z</time>
      </trkpt>
      <trkpt lat="44.35894" lon="6.47763">
        <ele>1382</ele>
        <time>2022-06-08T21:16:45Z</time>
      </trkpt>
      <trkpt lat="44.35854" lon="6.47803">
        <ele>1386</ele>
        <time>2022-06-08T21:16:56Z</time>
      </trkpt>
      <trkpt lat="44.35832" lon="6.47832">
        <ele>1384</ele>
        <time>2022-06-08T21:17:03Z</time>
      </trkpt>
      <trkpt lat="44.35782" lon="6.47886">
        <ele>1387</ele>
        <time>2022-06-08T21:17:18Z</time>
      </trkpt>
      <trkpt lat="44.35767" lon="6.47918">
        <ele>1385</ele>
        <time>2022-06-08T21:17:24Z</time>
      </trkpt>
      <trkpt lat="44.35753" lon="6.47931">
        <ele>1383</ele>
        <time>2022-06-08T21:17:28Z</time>
      </trkpt>
      <trkpt lat="44.35725" lon="6.47964">
        <ele>1387</ele>
        <time>2022-06-08T21:17:37Z</time>
      </trkpt>
      <trkpt lat="44.35711" lon="6.47999">
        <ele>1390</ele>
        <time>2022-06-08T21:17:44Z</time>
      </trkpt>
      <trkpt lat="44.35697" lon="6.48028">
        <ele>1395</ele>
        <time>2022-06-08T21:17:49Z</time>
      </trkpt>
      <trkpt lat="44.35685" lon="6.48047">
        <ele>1397</ele>
        <time>2022-06-08T21:17:54Z</time>
      </trkpt>
      <trkpt lat="44.35641" lon="6.481">
        <ele>1401</ele>
        <time>2022-06-08T21:18:07Z</time>
      </trkpt>
      <trkpt lat="44.35629" lon="6.48119">
        <ele>1404</ele>
        <time>2022-06-08T21:18:11Z</time>
      </trkpt>
      <trkpt lat="44.3561" lon="6.48158">
        <ele>1410</ele>
        <time>2022-06-08T21:18:19Z</time>
      </trkpt>
      <trkpt lat="44.35577" lon="6.48207">
        <ele>1414</ele>
        <time>2022-06-08T21:18:31Z</time>
      </trkpt>
      <trkpt lat="44.35567" lon="6.4824">
        <ele>1419</ele>
        <time>2022-06-08T21:18:37Z</time>
      </trkpt>
      <trkpt lat="44.3555" lon="6.4827">
        <ele>1423</ele>
        <time>2022-06-08T21:18:43Z</time>
      </trkpt>
      <trkpt lat="44.35535" lon="6.48287">
        <ele>1424</ele>
        <time>2022-06-08T21:18:47Z</time>
      </trkpt>
      <trkpt lat="44.3553" lon="6.48311">
        <ele>1428</ele>
        <time>2022-06-08T21:18:52Z</time>
      </trkpt>
      <trkpt lat="44.35538" lon="6.48317">
        <ele>1430</ele>
        <time>2022-06-08T21:18:54Z</time>
      </trkpt>
      <trkpt lat="44.35559" lon="6.48307">
        <ele>1432</ele>
        <time>2022-06-08T21:18:59Z</time>
      </trkpt>
      <trkpt lat="44.35597" lon="6.48259">
        <ele>1428</ele>
        <time>2022-06-08T21:19:11Z</time>
      </trkpt>
      <trkpt lat="44.35645" lon="6.48243">
        <ele>1435</ele>
        <time>2022-06-08T21:19:22Z</time>
      </trkpt>
      <trkpt lat="44.35669" lon="6.48254">
        <ele>1443</ele>
        <time>2022-06-08T21:19:28Z</time>
      </trkpt>
      <trkpt lat="44.35689" lon="6.48241">
        <ele>1448</ele>
        <time>2022-06-08T21:19:33Z</time>
      </trkpt>
      <trkpt lat="44.35711" lon="6.48196">
        <ele>1445</ele>
        <time>2022-06-08T21:19:43Z</time>
      </trkpt>
      <trkpt lat="44.35715" lon="6.48202">
        <ele>1448</ele>
        <time>2022-06-08T21:19:44Z</time>
      </trkpt>
      <trkpt lat="44.35697" lon="6.48279">
        <ele>1461</ele>
        <time>2022-06-08T21:19:57Z</time>
      </trkpt>
      <trkpt lat="44.35669" lon="6.48316">
        <ele>1459</ele>
        <time>2022-06-08T21:20:06Z</time>
      </trkpt>
      <trkpt lat="44.35638" lon="6.48395">
        <ele>1468</ele>
        <time>2022-06-08T21:20:22Z</time>
      </trkpt>
      <trkpt lat="44.35598" lon="6.48466">
        <ele>1466</ele>
        <time>2022-06-08T21:20:37Z</time>
      </trkpt>
      <trkpt lat="44.3557" lon="6.48494">
        <ele>1464</ele>
        <time>2022-06-08T21:20:45Z</time>
      </trkpt>
      <trkpt lat="44.35545" lon="6.48529">
        <ele>1471</ele>
        <time>2022-06-08T21:20:53Z</time>
      </trkpt>
      <trkpt lat="44.35536" lon="6.48536">
        <ele>1473</ele>
        <time>2022-06-08T21:20:55Z</time>
      </trkpt>
      <trkpt lat="44.35513" lon="6.48518">
        <ele>1468</ele>
        <time>2022-06-08T21:21:01Z</time>
      </trkpt>
      <trkpt lat="44.35493" lon="6.48513">
        <ele>1465</ele>
        <time>2022-06-08T21:21:06Z</time>
      </trkpt>
      <trkpt lat="44.35467" lon="6.48521">
        <ele>1466</ele>
        <time>2022-06-08T21:21:12Z</time>
      </trkpt>
      <trkpt lat="44.35374" lon="6.48594">
        <ele>1478</ele>
        <time>2022-06-08T21:21:37Z</time>
      </trkpt>
      <trkpt lat="44.3536" lon="6.48609">
        <ele>1480</ele>
        <time>2022-06-08T21:21:41Z</time>
      </trkpt>
      <trkpt lat="44.35302" lon="6.48708">
        <ele>1492</ele>
        <time>2022-06-08T21:22:03Z</time>
      </trkpt>
      <trkpt lat="44.35275" lon="6.48761">
        <ele>1498</ele>
        <time>2022-06-08T21:22:14Z</time>
      </trkpt>
      <trkpt lat="44.35235" lon="6.48829">
        <ele>1501</ele>
        <time>2022-06-08T21:22:28Z</time>
      </trkpt>
      <trkpt lat="44.35215" lon="6.48887">
        <ele>1511</ele>
        <time>2022-06-08T21:22:39Z</time>
      </trkpt>
      <trkpt lat="44.35198" lon="6.48906">
        <ele>1512</ele>
        <time>2022-06-08T21:22:44Z</time>
      </trkpt>
      <trkpt lat="44.35181" lon="6.48918">
        <ele>1512</ele>
        <time>2022-06-08T21:22:49Z</time>
      </trkpt>
      <trkpt lat="44.35166" lon="6.48941">
        <ele>1513</ele>
        <time>2022-06-08T21:22:54Z</time>
      </trkpt>
      <trkpt lat="44.3513" lon="6.4904">
        <ele>1518</ele>
        <time>2022-06-08T21:23:12Z</time>
      </trkpt>
      <trkpt lat="44.35124" lon="6.49066">
        <ele>1519</ele>
        <time>2022-06-08T21:23:17Z</time>
      </trkpt>
      <trkpt lat="44.35128" lon="6.49096">
        <ele>1524</ele>
        <time>2022-06-08T21:23:22Z</time>
      </trkpt>
      <trkpt lat="44.35133" lon="6.49094">
        <ele>1526</ele>
        <time>2022-06-08T21:23:23Z</time>
      </trkpt>
      <trkpt lat="44.3514" lon="6.49069">
        <ele>1526</ele>
        <time>2022-06-08T21:23:28Z</time>
      </trkpt>
      <trkpt lat="44.35157" lon="6.49041">
        <ele>1528</ele>
        <time>2022-06-08T21:23:34Z</time>
      </trkpt>
      <trkpt lat="44.35174" lon="6.49026">
        <ele>1532</ele>
        <time>2022-06-08T21:23:39Z</time>
      </trkpt>
      <trkpt lat="44.35214" lon="6.49006">
        <ele>1541</ele>
        <time>2022-06-08T21:23:49Z</time>
      </trkpt>
      <trkpt lat="44.35225" lon="6.49009">
        <ele>1544</ele>
        <time>2022-06-08T21:23:51Z</time>
      </trkpt>
      <trkpt lat="44.35226" lon="6.49024">
        <ele>1547</ele>
        <time>2022-06-08T21:23:54Z</time>
      </trkpt>
      <trkpt lat="44.35211" lon="6.49041">
        <ele>1546</ele>
        <time>2022-06-08T21:23:58Z</time>
      </trkpt>
      <trkpt lat="44.35198" lon="6.49064">
        <ele>1545</ele>
        <time>2022-06-08T21:24:03Z</time>
      </trkpt>
      <trkpt lat="44.35191" lon="6.49087">
        <ele>1547</ele>
        <time>2022-06-08T21:24:07Z</time>
      </trkpt>
      <trkpt lat="44.35194" lon="6.4925">
        <ele>1561</ele>
        <time>2022-06-08T21:24:34Z</time>
      </trkpt>
      <trkpt lat="44.35195" lon="6.49247">
        <ele>1562</ele>
        <time>2022-06-08T21:24:35Z</time>
      </trkpt>
      <trkpt lat="44.35199" lon="6.49248">
        <ele>1563</ele>
        <time>2022-06-08T21:24:36Z</time>
      </trkpt>
      <trkpt lat="44.35196" lon="6.49242">
        <ele>1562</ele>
        <time>2022-06-08T21:24:37Z</time>
      </trkpt>
      <trkpt lat="44.35196" lon="6.49244">
        <ele>1562</ele>
        <time>2022-06-08T21:24:38Z</time>
      </trkpt>
      <trkpt lat="44.35193" lon="6.49244">
        <ele>1561</ele>
        <time>2022-06-08T21:24:38Z</time>
      </trkpt>
      <trkpt lat="44.35188" lon="6.4926">
        <ele>1560</ele>
        <time>2022-06-08T21:24:41Z</time>
      </trkpt>
      <trkpt lat="44.35188" lon="6.49269">
        <ele>1561</ele>
        <time>2022-06-08T21:24:43Z</time>
      </trkpt>
      <trkpt lat="44.35171" lon="6.49311">
        <ele>1559</ele>
        <time>2022-06-08T21:24:51Z</time>
      </trkpt>
      <trkpt lat="44.3518" lon="6.49395">
        <ele>1575</ele>
        <time>2022-06-08T21:25:05Z</time>
      </trkpt>
      <trkpt lat="44.35175" lon="6.49442">
        <ele>1580</ele>
        <time>2022-06-08T21:25:13Z</time>
      </trkpt>
      <trkpt lat="44.35158" lon="6.49474">
        <ele>1580</ele>
        <time>2022-06-08T21:25:19Z</time>
      </trkpt>
      <trkpt lat="44.35123" lon="6.49529">
        <ele>1580</ele>
        <time>2022-06-08T21:25:32Z</time>
      </trkpt>
      <trkpt lat="44.35105" lon="6.49564">
        <ele>1583</ele>
        <time>2022-06-08T21:25:39Z</time>
      </trkpt>
      <trkpt lat="44.35086" lon="6.49587">
        <ele>1584</ele>
        <time>2022-06-08T21:25:45Z</time>
      </trkpt>
      <trkpt lat="44.35072" lon="6.49636">
        <ele>1589</ele>
        <time>2022-06-08T21:25:54Z</time>
      </trkpt>
      <trkpt lat="44.35062" lon="6.49654">
        <ele>1589</ele>
        <time>2022-06-08T21:25:57Z</time>
      </trkpt>
      <trkpt lat="44.35037" lon="6.49681">
        <ele>1587</ele>
        <time>2022-06-08T21:26:05Z</time>
      </trkpt>
      <trkpt lat="44.35029" lon="6.497">
        <ele>1587</ele>
        <time>2022-06-08T21:26:09Z</time>
      </trkpt>
      <trkpt lat="44.34984" lon="6.49782">
        <ele>1585</ele>
        <time>2022-06-08T21:26:26Z</time>
      </trkpt>
      <trkpt lat="44.34965" lon="6.4983">
        <ele>1583</ele>
        <time>2022-06-08T21:26:35Z</time>
      </trkpt>
      <trkpt lat="44.34963" lon="6.49847">
        <ele>1584</ele>
        <time>2022-06-08T21:26:38Z</time>
      </trkpt>
      <trkpt lat="44.34944" lon="6.49917">
        <ele>1584</ele>
        <time>2022-06-08T21:26:50Z</time>
      </trkpt>
      <trkpt lat="44.34921" lon="6.50024">
        <ele>1584</ele>
        <time>2022-06-08T21:27:09Z</time>
      </trkpt>
      <trkpt lat="44.34907" lon="6.5006">
        <ele>1585</ele>
        <time>2022-06-08T21:27:16Z</time>
      </trkpt>
      <trkpt lat="44.34871" lon="6.50105">
        <ele>1582</ele>
        <time>2022-06-08T21:27:27Z</time>
      </trkpt>
      <trkpt lat="44.34862" lon="6.50142">
        <ele>1581</ele>
        <time>2022-06-08T21:27:34Z</time>
      </trkpt>
      <trkpt lat="44.34859" lon="6.50166">
        <ele>1582</ele>
        <time>2022-06-08T21:27:38Z</time>
      </trkpt>
      <trkpt lat="44.34862" lon="6.5025">
        <ele>1583</ele>
        <time>2022-06-08T21:27:52Z</time>
      </trkpt>
      <trkpt lat="44.34875" lon="6.5033">
        <ele>1583</ele>
        <time>2022-06-08T21:28:05Z</time>
      </trkpt>
      <trkpt lat="44.34892" lon="6.50376">
        <ele>1585</ele>
        <time>2022-06-08T21:28:14Z</time>
      </trkpt>
      <trkpt lat="44.34916" lon="6.50467">
        <ele>1590</ele>
        <time>2022-06-08T21:28:30Z</time>
      </trkpt>
      <trkpt lat="44.34916" lon="6.50495">
        <ele>1591</ele>
        <time>2022-06-08T21:28:35Z</time>
      </trkpt>
      <trkpt lat="44.34898" lon="6.50576">
        <ele>1591</ele>
        <time>2022-06-08T21:28:49Z</time>
      </trkpt>
      <trkpt lat="44.34892" lon="6.50587">
        <ele>1590</ele>
        <time>2022-06-08T21:28:51Z</time>
      </trkpt>
      <trkpt lat="44.34887" lon="6.5059">
        <ele>1590</ele>
        <time>2022-06-08T21:28:53Z</time>
      </trkpt>
      <trkpt lat="44.34842" lon="6.5064">
        <ele>1589</ele>
        <time>2022-06-08T21:29:06Z</time>
      </trkpt>
      <trkpt lat="44.3484" lon="6.5065">
        <ele>1590</ele>
        <time>2022-06-08T21:29:08Z</time>
      </trkpt>
      <trkpt lat="44.34818" lon="6.50666">
        <ele>1589</ele>
        <time>2022-06-08T21:29:14Z</time>
      </trkpt>
      <trkpt lat="44.34801" lon="6.50704">
        <ele>1595</ele>
        <time>2022-06-08T21:29:21Z</time>
      </trkpt>
      <trkpt lat="44.34791" lon="6.50733">
        <ele>1599</ele>
        <time>2022-06-08T21:29:27Z</time>
      </trkpt>
      <trkpt lat="44.34759" lon="6.50765">
        <ele>1601</ele>
        <time>2022-06-08T21:29:36Z</time>
      </trkpt>
      <trkpt lat="44.34724" lon="6.50783">
        <ele>1600</ele>
        <time>2022-06-08T21:29:44Z</time>
      </trkpt>
      <trkpt lat="44.34702" lon="6.50791">
        <ele>1598</ele>
        <time>2022-06-08T21:29:50Z</time>
      </trkpt>
      <trkpt lat="44.34641" lon="6.509">
        <ele>1604</ele>
        <time>2022-06-08T21:30:13Z</time>
      </trkpt>
      <trkpt lat="44.346" lon="6.50946">
        <ele>1603</ele>
        <time>2022-06-08T21:30:25Z</time>
      </trkpt>
      <trkpt lat="44.34573" lon="6.5099">
        <ele>1605</ele>
        <time>2022-06-08T21:30:35Z</time>
      </trkpt>
      <trkpt lat="44.34538" lon="6.51025">
        <ele>1609</ele>
        <time>2022-06-08T21:30:45Z</time>
      </trkpt>
      <trkpt lat="44.3451" lon="6.51038">
        <ele>1607</ele>
        <time>2022-06-08T21:30:52Z</time>
      </trkpt>
      <trkpt lat="44.34493" lon="6.51071">
        <ele>1610</ele>
        <time>2022-06-08T21:30:59Z</time>
      </trkpt>
      <trkpt lat="44.34469" lon="6.51102">
        <ele>1613</ele>
        <time>2022-06-08T21:31:06Z</time>
      </trkpt>
      <trkpt lat="44.34416" lon="6.51162">
        <ele>1614</ele>
        <time>2022-06-08T21:31:22Z</time>
      </trkpt>
      <trkpt lat="44.34351" lon="6.51214">
        <ele>1619</ele>
        <time>2022-06-08T21:31:40Z</time>
      </trkpt>
      <trkpt lat="44.3432" lon="6.51232">
        <ele>1620</ele>
        <time>2022-06-08T21:31:47Z</time>
      </trkpt>
      <trkpt lat="44.34291" lon="6.51234">
        <ele>1621</ele>
        <time>2022-06-08T21:31:54Z</time>
      </trkpt>
      <trkpt lat="44.34269" lon="6.51254">
        <ele>1623</ele>
        <time>2022-06-08T21:32:00Z</time>
      </trkpt>
      <trkpt lat="44.34211" lon="6.51292">
        <ele>1631</ele>
        <time>2022-06-08T21:32:15Z</time>
      </trkpt>
      <trkpt lat="44.34189" lon="6.51299">
        <ele>1632</ele>
        <time>2022-06-08T21:32:21Z</time>
      </trkpt>
      <trkpt lat="44.34181" lon="6.51299">
        <ele>1632</ele>
        <time>2022-06-08T21:32:22Z</time>
      </trkpt>
      <trkpt lat="44.34172" lon="6.51304">
        <ele>1633</ele>
        <time>2022-06-08T21:32:25Z</time>
      </trkpt>
      <trkpt lat="44.34155" lon="6.51324">
        <ele>1636</ele>
        <time>2022-06-08T21:32:30Z</time>
      </trkpt>
      <trkpt lat="44.34138" lon="6.51336">
        <ele>1637</ele>
        <time>2022-06-08T21:32:34Z</time>
      </trkpt>
      <trkpt lat="44.34114" lon="6.51358">
        <ele>1638</ele>
        <time>2022-06-08T21:32:41Z</time>
      </trkpt>
      <trkpt lat="44.34108" lon="6.51368">
        <ele>1637</ele>
        <time>2022-06-08T21:32:43Z</time>
      </trkpt>
      <trkpt lat="44.34101" lon="6.51397">
        <ele>1636</ele>
        <time>2022-06-08T21:32:48Z</time>
      </trkpt>
      <trkpt lat="44.34096" lon="6.51451">
        <ele>1637</ele>
        <time>2022-06-08T21:32:57Z</time>
      </trkpt>
      <trkpt lat="44.3409" lon="6.51487">
        <ele>1638</ele>
        <time>2022-06-08T21:33:04Z</time>
      </trkpt>
      <trkpt lat="44.34048" lon="6.5153">
        <ele>1639</ele>
        <time>2022-06-08T21:33:16Z</time>
      </trkpt>
      <trkpt lat="44.34017" lon="6.51568">
        <ele>1639</ele>
        <time>2022-06-08T21:33:25Z</time>
      </trkpt>
      <trkpt lat="44.34001" lon="6.51624">
        <ele>1640</ele>
        <time>2022-06-08T21:33:35Z</time>
      </trkpt>
      <trkpt lat="44.33995" lon="6.51636">
        <ele>1640</ele>
        <time>2022-06-08T21:33:38Z</time>
      </trkpt>
      <trkpt lat="44.33998" lon="6.51632">
        <ele>1640</ele>
        <time>2022-06-08T21:33:39Z</time>
      </trkpt>
      <trkpt lat="44.33994" lon="6.51633">
        <ele>1640</ele>
        <time>2022-06-08T21:33:40Z</time>
      </trkpt>
      <trkpt lat="44.33993" lon="6.51638">
        <ele>1640</ele>
        <time>2022-06-08T21:33:41Z</time>
      </trkpt>
      <trkpt lat="44.33955" lon="6.51677">
        <ele>1641</ele>
        <time>2022-06-08T21:33:52Z</time>
      </trkpt>
      <trkpt lat="44.33941" lon="6.51702">
        <ele>1642</ele>
        <time>2022-06-08T21:33:57Z</time>
      </trkpt>
      <trkpt lat="44.33915" lon="6.51717">
        <ele>1643</ele>
        <time>2022-06-08T21:34:04Z</time>
      </trkpt>
      <trkpt lat="44.33907" lon="6.51724">
        <ele>1643</ele>
        <time>2022-06-08T21:34:06Z</time>
      </trkpt>
      <trkpt lat="44.33895" lon="6.51728">
        <ele>1643</ele>
        <time>2022-06-08T21:34:09Z</time>
      </trkpt>
      <trkpt lat="44.33852" lon="6.51754">
        <ele>1645</ele>
        <time>2022-06-08T21:34:20Z</time>
      </trkpt>
      <trkpt lat="44.33822" lon="6.51765">
        <ele>1646</ele>
        <time>2022-06-08T21:34:27Z</time>
      </trkpt>
      <trkpt lat="44.33797" lon="6.51769">
        <ele>1648</ele>
        <time>2022-06-08T21:34:33Z</time>
      </trkpt>
      <trkpt lat="44.33771" lon="6.51759">
        <ele>1648</ele>
        <time>2022-06-08T21:34:39Z</time>
      </trkpt>
      <trkpt lat="44.33751" lon="6.51745">
        <ele>1648</ele>
        <time>2022-06-08T21:34:44Z</time>
      </trkpt>
      <trkpt lat="44.33729" lon="6.51743">
        <ele>1649</ele>
        <time>2022-06-08T21:34:49Z</time>
      </trkpt>
      <trkpt lat="44.33702" lon="6.51747">
        <ele>1651</ele>
        <time>2022-06-08T21:34:56Z</time>
      </trkpt>
      <trkpt lat="44.33695" lon="6.5175">
        <ele>1652</ele>
        <time>2022-06-08T21:34:57Z</time>
      </trkpt>
      <trkpt lat="44.33679" lon="6.51746">
        <ele>1653</ele>
        <time>2022-06-08T21:35:01Z</time>
      </trkpt>
      <trkpt lat="44.33653" lon="6.51749">
        <ele>1654</ele>
        <time>2022-06-08T21:35:07Z</time>
      </trkpt>
      <trkpt lat="44.33634" lon="6.51755">
        <ele>1655</ele>
        <time>2022-06-08T21:35:12Z</time>
      </trkpt>
      <trkpt lat="44.33623" lon="6.51763">
        <ele>1656</ele>
        <time>2022-06-08T21:35:15Z</time>
      </trkpt>
      <trkpt lat="44.33616" lon="6.51762">
        <ele>1657</ele>
        <time>2022-06-08T21:35:16Z</time>
      </trkpt>
      <trkpt lat="44.33602" lon="6.51772">
        <ele>1658</ele>
        <time>2022-06-08T21:35:20Z</time>
      </trkpt>
      <trkpt lat="44.33598" lon="6.51782">
        <ele>1660</ele>
        <time>2022-06-08T21:35:22Z</time>
      </trkpt>
      <trkpt lat="44.33567" lon="6.51817">
        <ele>1665</ele>
        <time>2022-06-08T21:35:31Z</time>
      </trkpt>
      <trkpt lat="44.33569" lon="6.51822">
        <ele>1666</ele>
        <time>2022-06-08T21:35:32Z</time>
      </trkpt>
      <trkpt lat="44.33553" lon="6.51838">
        <ele>1668</ele>
        <time>2022-06-08T21:35:37Z</time>
      </trkpt>
      <trkpt lat="44.33541" lon="6.51855">
        <ele>1669</ele>
        <time>2022-06-08T21:35:41Z</time>
      </trkpt>
      <trkpt lat="44.33534" lon="6.5186">
        <ele>1670</ele>
        <time>2022-06-08T21:35:43Z</time>
      </trkpt>
      <trkpt lat="44.33532" lon="6.51867">
        <ele>1671</ele>
        <time>2022-06-08T21:35:44Z</time>
      </trkpt>
      <trkpt lat="44.33516" lon="6.51888">
        <ele>1673</ele>
        <time>2022-06-08T21:35:49Z</time>
      </trkpt>
      <trkpt lat="44.335" lon="6.51903">
        <ele>1675</ele>
        <time>2022-06-08T21:35:54Z</time>
      </trkpt>
      <trkpt lat="44.33495" lon="6.51911">
        <ele>1676</ele>
        <time>2022-06-08T21:35:55Z</time>
      </trkpt>
      <trkpt lat="44.33462" lon="6.5193">
        <ele>1681</ele>
        <time>2022-06-08T21:36:04Z</time>
      </trkpt>
      <trkpt lat="44.33456" lon="6.51931">
        <ele>1681</ele>
        <time>2022-06-08T21:36:05Z</time>
      </trkpt>
      <trkpt lat="44.33438" lon="6.51966">
        <ele>1686</ele>
        <time>2022-06-08T21:36:12Z</time>
      </trkpt>
      <trkpt lat="44.33404" lon="6.51984">
        <ele>1690</ele>
        <time>2022-06-08T21:36:21Z</time>
      </trkpt>
      <trkpt lat="44.3339" lon="6.5198">
        <ele>1691</ele>
        <time>2022-06-08T21:36:24Z</time>
      </trkpt>
      <trkpt lat="44.33379" lon="6.51981">
        <ele>1692</ele>
        <time>2022-06-08T21:36:27Z</time>
      </trkpt>
      <trkpt lat="44.33373" lon="6.51992">
        <ele>1694</ele>
        <time>2022-06-08T21:36:29Z</time>
      </trkpt>
      <trkpt lat="44.33369" lon="6.51994">
        <ele>1694</ele>
        <time>2022-06-08T21:36:30Z</time>
      </trkpt>
      <trkpt lat="44.33365" lon="6.5199">
        <ele>1694</ele>
        <time>2022-06-08T21:36:31Z</time>
      </trkpt>
      <trkpt lat="44.33364" lon="6.51993">
        <ele>1695</ele>
        <time>2022-06-08T21:36:32Z</time>
      </trkpt>
      <trkpt lat="44.33356" lon="6.51995">
        <ele>1696</ele>
        <time>2022-06-08T21:36:34Z</time>
      </trkpt>
      <trkpt lat="44.33363" lon="6.51989">
        <ele>1694</ele>
        <time>2022-06-08T21:36:35Z</time>
      </trkpt>
      <trkpt lat="44.33361" lon="6.51995">
        <ele>1695</ele>
        <time>2022-06-08T21:36:37Z</time>
      </trkpt>
      <trkpt lat="44.33358" lon="6.51996">
        <ele>1696</ele>
        <time>2022-06-08T21:36:37Z</time>
      </trkpt>
      <trkpt lat="44.33365" lon="6.51972">
        <ele>1692</ele>
        <time>2022-06-08T21:36:42Z</time>
      </trkpt>
      <trkpt lat="44.33365" lon="6.51965">
        <ele>1692</ele>
        <time>2022-06-08T21:36:43Z</time>
      </trkpt>
      <trkpt lat="44.33358" lon="6.5196">
        <ele>1692</ele>
        <time>2022-06-08T21:36:45Z</time>
      </trkpt>
      <trkpt lat="44.33351" lon="6.5196">
        <ele>1692</ele>
        <time>2022-06-08T21:36:46Z</time>
      </trkpt>
      <trkpt lat="44.33321" lon="6.51949">
        <ele>1693</ele>
        <time>2022-06-08T21:36:54Z</time>
      </trkpt>
      <trkpt lat="44.33293" lon="6.51943">
        <ele>1694</ele>
        <time>2022-06-08T21:37:00Z</time>
      </trkpt>
      <trkpt lat="44.33261" lon="6.51927">
        <ele>1693</ele>
        <time>2022-06-08T21:37:08Z</time>
      </trkpt>
      <trkpt lat="44.33229" lon="6.51915">
        <ele>1690</ele>
        <time>2022-06-08T21:37:16Z</time>
      </trkpt>
      <trkpt lat="44.33198" lon="6.51935">
        <ele>1690</ele>
        <time>2022-06-08T21:37:24Z</time>
      </trkpt>
      <trkpt lat="44.33171" lon="6.51945">
        <ele>1690</ele>
        <time>2022-06-08T21:37:30Z</time>
      </trkpt>
      <trkpt lat="44.33153" lon="6.51946">
        <ele>1689</ele>
        <time>2022-06-08T21:37:35Z</time>
      </trkpt>
      <trkpt lat="44.33132" lon="6.51951">
        <ele>1689</ele>
        <time>2022-06-08T21:37:39Z</time>
      </trkpt>
      <trkpt lat="44.3312" lon="6.51958">
        <ele>1690</ele>
        <time>2022-06-08T21:37:43Z</time>
      </trkpt>
      <trkpt lat="44.33109" lon="6.5197">
        <ele>1690</ele>
        <time>2022-06-08T21:37:46Z</time>
      </trkpt>
      <trkpt lat="44.33096" lon="6.51974">
        <ele>1689</ele>
        <time>2022-06-08T21:37:49Z</time>
      </trkpt>
      <trkpt lat="44.33089" lon="6.51983">
        <ele>1689</ele>
        <time>2022-06-08T21:37:51Z</time>
      </trkpt>
      <trkpt lat="44.33057" lon="6.52011">
        <ele>1690</ele>
        <time>2022-06-08T21:38:00Z</time>
      </trkpt>
      <trkpt lat="44.33019" lon="6.52039">
        <ele>1691</ele>
        <time>2022-06-08T21:38:10Z</time>
      </trkpt>
      <trkpt lat="44.32979" lon="6.52078">
        <ele>1691</ele>
        <time>2022-06-08T21:38:21Z</time>
      </trkpt>
      <trkpt lat="44.32956" lon="6.52089">
        <ele>1692</ele>
        <time>2022-06-08T21:38:27Z</time>
      </trkpt>
      <trkpt lat="44.3295" lon="6.52103">
        <ele>1693</ele>
        <time>2022-06-08T21:38:30Z</time>
      </trkpt>
      <trkpt lat="44.32941" lon="6.52108">
        <ele>1693</ele>
        <time>2022-06-08T21:38:32Z</time>
      </trkpt>
      <trkpt lat="44.32934" lon="6.52108">
        <ele>1693</ele>
        <time>2022-06-08T21:38:34Z</time>
      </trkpt>
      <trkpt lat="44.32896" lon="6.52098">
        <ele>1693</ele>
        <time>2022-06-08T21:38:43Z</time>
      </trkpt>
      <trkpt lat="44.32864" lon="6.52101">
        <ele>1695</ele>
        <time>2022-06-08T21:38:50Z</time>
      </trkpt>
      <trkpt lat="44.32822" lon="6.52109">
        <ele>1698</ele>
        <time>2022-06-08T21:39:00Z</time>
      </trkpt>
      <trkpt lat="44.32733" lon="6.52112">
        <ele>1698</ele>
        <time>2022-06-08T21:39:21Z</time>
      </trkpt>
      <trkpt lat="44.32693" lon="6.52108">
        <ele>1699</ele>
        <time>2022-06-08T21:39:30Z</time>
      </trkpt>
      <trkpt lat="44.3268" lon="6.52111">
        <ele>1700</ele>
        <time>2022-06-08T21:39:33Z</time>
      </trkpt>
      <trkpt lat="44.32655" lon="6.5209">
        <ele>1700</ele>
        <time>2022-06-08T21:39:40Z</time>
      </trkpt>
      <trkpt lat="44.32631" lon="6.52063">
        <ele>1701</ele>
        <time>2022-06-08T21:39:47Z</time>
      </trkpt>
      <trkpt lat="44.32604" lon="6.52053">
        <ele>1702</ele>
        <time>2022-06-08T21:39:54Z</time>
      </trkpt>
      <trkpt lat="44.3258" lon="6.52039">
        <ele>1704</ele>
        <time>2022-06-08T21:40:00Z</time>
      </trkpt>
      <trkpt lat="44.32573" lon="6.52038">
        <ele>1704</ele>
        <time>2022-06-08T21:40:02Z</time>
      </trkpt>
      <trkpt lat="44.32547" lon="6.52047">
        <ele>1706</ele>
        <time>2022-06-08T21:40:08Z</time>
      </trkpt>
      <trkpt lat="44.32534" lon="6.52058">
        <ele>1707</ele>
        <time>2022-06-08T21:40:11Z</time>
      </trkpt>
      <trkpt lat="44.32487" lon="6.52078">
        <ele>1710</ele>
        <time>2022-06-08T21:40:23Z</time>
      </trkpt>
      <trkpt lat="44.3248" lon="6.52089">
        <ele>1711</ele>
        <time>2022-06-08T21:40:25Z</time>
      </trkpt>
      <trkpt lat="44.32472" lon="6.5209">
        <ele>1712</ele>
        <time>2022-06-08T21:40:27Z</time>
      </trkpt>
      <trkpt lat="44.32463" lon="6.52095">
        <ele>1712</ele>
        <time>2022-06-08T21:40:29Z</time>
      </trkpt>
      <trkpt lat="44.32437" lon="6.52103">
        <ele>1714</ele>
        <time>2022-06-08T21:40:36Z</time>
      </trkpt>
      <trkpt lat="44.32411" lon="6.52103">
        <ele>1715</ele>
        <time>2022-06-08T21:40:42Z</time>
      </trkpt>
      <trkpt lat="44.32383" lon="6.52112">
        <ele>1717</ele>
        <time>2022-06-08T21:40:48Z</time>
      </trkpt>
      <trkpt lat="44.32355" lon="6.52106">
        <ele>1717</ele>
        <time>2022-06-08T21:40:55Z</time>
      </trkpt>
      <trkpt lat="44.32336" lon="6.52109">
        <ele>1718</ele>
        <time>2022-06-08T21:40:59Z</time>
      </trkpt>
      <trkpt lat="44.32316" lon="6.52103">
        <ele>1718</ele>
        <time>2022-06-08T21:41:04Z</time>
      </trkpt>
      <trkpt lat="44.32306" lon="6.52104">
        <ele>1718</ele>
        <time>2022-06-08T21:41:07Z</time>
      </trkpt>
      <trkpt lat="44.32298" lon="6.52097">
        <ele>1718</ele>
        <time>2022-06-08T21:41:09Z</time>
      </trkpt>
      <trkpt lat="44.32287" lon="6.52102">
        <ele>1718</ele>
        <time>2022-06-08T21:41:12Z</time>
      </trkpt>
      <trkpt lat="44.32275" lon="6.52102">
        <ele>1718</ele>
        <time>2022-06-08T21:41:14Z</time>
      </trkpt>
      <trkpt lat="44.3226" lon="6.52114">
        <ele>1720</ele>
        <time>2022-06-08T21:41:18Z</time>
      </trkpt>
      <trkpt lat="44.3222" lon="6.52115">
        <ele>1720</ele>
        <time>2022-06-08T21:41:28Z</time>
      </trkpt>
      <trkpt lat="44.32189" lon="6.52108">
        <ele>1720</ele>
        <time>2022-06-08T21:41:35Z</time>
      </trkpt>
      <trkpt lat="44.32161" lon="6.52109">
        <ele>1720</ele>
        <time>2022-06-08T21:41:42Z</time>
      </trkpt>
      <trkpt lat="44.32148" lon="6.52115">
        <ele>1722</ele>
        <time>2022-06-08T21:41:45Z</time>
      </trkpt>
      <trkpt lat="44.32105" lon="6.52121">
        <ele>1725</ele>
        <time>2022-06-08T21:41:55Z</time>
      </trkpt>
      <trkpt lat="44.32061" lon="6.52105">
        <ele>1728</ele>
        <time>2022-06-08T21:42:05Z</time>
      </trkpt>
      <trkpt lat="44.32014" lon="6.52103">
        <ele>1735</ele>
        <time>2022-06-08T21:42:16Z</time>
      </trkpt>
      <trkpt lat="44.32008" lon="6.52101">
        <ele>1735</ele>
        <time>2022-06-08T21:42:18Z</time>
      </trkpt>
      <trkpt lat="44.3201" lon="6.52099">
        <ele>1735</ele>
        <time>2022-06-08T21:42:18Z</time>
      </trkpt>
      <trkpt lat="44.32004" lon="6.5209">
        <ele>1733</ele>
        <time>2022-06-08T21:42:21Z</time>
      </trkpt>
      <trkpt lat="44.31974" lon="6.52071">
        <ele>1736</ele>
        <time>2022-06-08T21:42:28Z</time>
      </trkpt>
      <trkpt lat="44.31969" lon="6.5206">
        <ele>1736</ele>
        <time>2022-06-08T21:42:30Z</time>
      </trkpt>
      <trkpt lat="44.31963" lon="6.52058">
        <ele>1736</ele>
        <time>2022-06-08T21:42:32Z</time>
      </trkpt>
      <trkpt lat="44.31955" lon="6.52062">
        <ele>1739</ele>
        <time>2022-06-08T21:42:34Z</time>
      </trkpt>
      <trkpt lat="44.3193" lon="6.52051">
        <ele>1742</ele>
        <time>2022-06-08T21:42:40Z</time>
      </trkpt>
      <trkpt lat="44.3192" lon="6.5204">
        <ele>1741</ele>
        <time>2022-06-08T21:42:43Z</time>
      </trkpt>
      <trkpt lat="44.31886" lon="6.52023">
        <ele>1745</ele>
        <time>2022-06-08T21:42:51Z</time>
      </trkpt>
      <trkpt lat="44.31876" lon="6.52014">
        <ele>1745</ele>
        <time>2022-06-08T21:42:54Z</time>
      </trkpt>
      <trkpt lat="44.31873" lon="6.52007">
        <ele>1744</ele>
        <time>2022-06-08T21:42:55Z</time>
      </trkpt>
      <trkpt lat="44.31859" lon="6.52">
        <ele>1745</ele>
        <time>2022-06-08T21:42:59Z</time>
      </trkpt>
      <trkpt lat="44.31854" lon="6.51993">
        <ele>1746</ele>
        <time>2022-06-08T21:43:01Z</time>
      </trkpt>
      <trkpt lat="44.31857" lon="6.5199">
        <ele>1745</ele>
        <time>2022-06-08T21:43:01Z</time>
      </trkpt>
      <trkpt lat="44.31845" lon="6.51972">
        <ele>1746</ele>
        <time>2022-06-08T21:43:06Z</time>
      </trkpt>
      <trkpt lat="44.31813" lon="6.5194">
        <ele>1751</ele>
        <time>2022-06-08T21:43:15Z</time>
      </trkpt>
      <trkpt lat="44.31808" lon="6.51926">
        <ele>1751</ele>
        <time>2022-06-08T21:43:17Z</time>
      </trkpt>
      <trkpt lat="44.31799" lon="6.51918">
        <ele>1753</ele>
        <time>2022-06-08T21:43:20Z</time>
      </trkpt>
      <trkpt lat="44.31792" lon="6.51906">
        <ele>1756</ele>
        <time>2022-06-08T21:43:22Z</time>
      </trkpt>
      <trkpt lat="44.31779" lon="6.51892">
        <ele>1761</ele>
        <time>2022-06-08T21:43:26Z</time>
      </trkpt>
      <trkpt lat="44.31768" lon="6.51883">
        <ele>1764</ele>
        <time>2022-06-08T21:43:29Z</time>
      </trkpt>
      <trkpt lat="44.31763" lon="6.51867">
        <ele>1766</ele>
        <time>2022-06-08T21:43:32Z</time>
      </trkpt>
      <trkpt lat="44.31716" lon="6.51846">
        <ele>1782</ele>
        <time>2022-06-08T21:43:44Z</time>
      </trkpt>
      <trkpt lat="44.31702" lon="6.51848">
        <ele>1788</ele>
        <time>2022-06-08T21:43:47Z</time>
      </trkpt>
      <trkpt lat="44.31688" lon="6.51802">
        <ele>1792</ele>
        <time>2022-06-08T21:43:55Z</time>
      </trkpt>
      <trkpt lat="44.3168" lon="6.51809">
        <ele>1795</ele>
        <time>2022-06-08T21:43:58Z</time>
      </trkpt>
      <trkpt lat="44.3167" lon="6.51834">
        <ele>1799</ele>
        <time>2022-06-08T21:44:02Z</time>
      </trkpt>
      <trkpt lat="44.31663" lon="6.51788">
        <ele>1799</ele>
        <time>2022-06-08T21:44:10Z</time>
      </trkpt>
      <trkpt lat="44.31666" lon="6.51773">
        <ele>1797</ele>
        <time>2022-06-08T21:44:13Z</time>
      </trkpt>
      <trkpt lat="44.31651" lon="6.51782">
        <ele>1804</ele>
        <time>2022-06-08T21:44:17Z</time>
      </trkpt>
      <trkpt lat="44.31651" lon="6.5179">
        <ele>1805</ele>
        <time>2022-06-08T21:44:18Z</time>
      </trkpt>
      <trkpt lat="44.31644" lon="6.51785">
        <ele>1808</ele>
        <time>2022-06-08T21:44:20Z</time>
      </trkpt>
      <trkpt lat="44.31647" lon="6.51757">
        <ele>1804</ele>
        <time>2022-06-08T21:44:25Z</time>
      </trkpt>
      <trkpt lat="44.31606" lon="6.51722">
        <ele>1822</ele>
        <time>2022-06-08T21:44:36Z</time>
      </trkpt>
      <trkpt lat="44.31606" lon="6.51707">
        <ele>1823</ele>
        <time>2022-06-08T21:44:38Z</time>
      </trkpt>
      <trkpt lat="44.31603" lon="6.51692">
        <ele>1825</ele>
        <time>2022-06-08T21:44:41Z</time>
      </trkpt>
      <trkpt lat="44.31599" lon="6.51687">
        <ele>1826</ele>
        <time>2022-06-08T21:44:42Z</time>
      </trkpt>
      <trkpt lat="44.31587" lon="6.51686">
        <ele>1829</ele>
        <time>2022-06-08T21:44:45Z</time>
      </trkpt>
      <trkpt lat="44.31573" lon="6.51688">
        <ele>1830</ele>
        <time>2022-06-08T21:44:48Z</time>
      </trkpt>
      <trkpt lat="44.31556" lon="6.51695">
        <ele>1832</ele>
        <time>2022-06-08T21:44:52Z</time>
      </trkpt>
      <trkpt lat="44.31539" lon="6.51695">
        <ele>1833</ele>
        <time>2022-06-08T21:44:56Z</time>
      </trkpt>
      <trkpt lat="44.31531" lon="6.51697">
        <ele>1834</ele>
        <time>2022-06-08T21:44:58Z</time>
      </trkpt>
      <trkpt lat="44.31517" lon="6.51706">
        <ele>1836</ele>
        <time>2022-06-08T21:45:02Z</time>
      </trkpt>
      <trkpt lat="44.31492" lon="6.51735">
        <ele>1839</ele>
        <time>2022-06-08T21:45:09Z</time>
      </trkpt>
      <trkpt lat="44.31485" lon="6.51755">
        <ele>1840</ele>
        <time>2022-06-08T21:45:13Z</time>
      </trkpt>
      <trkpt lat="44.31466" lon="6.51784">
        <ele>1846</ele>
        <time>2022-06-08T21:45:20Z</time>
      </trkpt>
      <trkpt lat="44.31451" lon="6.51793">
        <ele>1847</ele>
        <time>2022-06-08T21:45:23Z</time>
      </trkpt>
      <trkpt lat="44.31449" lon="6.51792">
        <ele>1847</ele>
        <time>2022-06-08T21:45:24Z</time>
      </trkpt>
      <trkpt lat="44.31428" lon="6.518">
        <ele>1848</ele>
        <time>2022-06-08T21:45:29Z</time>
      </trkpt>
      <trkpt lat="44.3139" lon="6.51872">
        <ele>1861</ele>
        <time>2022-06-08T21:45:44Z</time>
      </trkpt>
      <trkpt lat="44.31367" lon="6.519">
        <ele>1864</ele>
        <time>2022-06-08T21:45:51Z</time>
      </trkpt>
      <trkpt lat="44.31358" lon="6.51915">
        <ele>1866</ele>
        <time>2022-06-08T21:45:54Z</time>
      </trkpt>
      <trkpt lat="44.31374" lon="6.51928">
        <ele>1869</ele>
        <time>2022-06-08T21:45:59Z</time>
      </trkpt>
      <trkpt lat="44.31429" lon="6.51947">
        <ele>1877</ele>
        <time>2022-06-08T21:46:12Z</time>
      </trkpt>
      <trkpt lat="44.31436" lon="6.51956">
        <ele>1879</ele>
        <time>2022-06-08T21:46:14Z</time>
      </trkpt>
      <trkpt lat="44.31457" lon="6.51974">
        <ele>1883</ele>
        <time>2022-06-08T21:46:20Z</time>
      </trkpt>
      <trkpt lat="44.31472" lon="6.51982">
        <ele>1884</ele>
        <time>2022-06-08T21:46:24Z</time>
      </trkpt>
      <trkpt lat="44.3148" lon="6.51991">
        <ele>1886</ele>
        <time>2022-06-08T21:46:26Z</time>
      </trkpt>
      <trkpt lat="44.3149" lon="6.52017">
        <ele>1891</ele>
        <time>2022-06-08T21:46:31Z</time>
      </trkpt>
      <trkpt lat="44.315" lon="6.52024">
        <ele>1892</ele>
        <time>2022-06-08T21:46:34Z</time>
      </trkpt>
      <trkpt lat="44.31512" lon="6.52039">
        <ele>1893</ele>
        <time>2022-06-08T21:46:37Z</time>
      </trkpt>
      <trkpt lat="44.31523" lon="6.52058">
        <ele>1895</ele>
        <time>2022-06-08T21:46:41Z</time>
      </trkpt>
      <trkpt lat="44.31547" lon="6.52087">
        <ele>1897</ele>
        <time>2022-06-08T21:46:49Z</time>
      </trkpt>
      <trkpt lat="44.31563" lon="6.52099">
        <ele>1897</ele>
        <time>2022-06-08T21:46:53Z</time>
      </trkpt>
      <trkpt lat="44.31567" lon="6.52099">
        <ele>1896</ele>
        <time>2022-06-08T21:46:54Z</time>
      </trkpt>
      <trkpt lat="44.31581" lon="6.52122">
        <ele>1900</ele>
        <time>2022-06-08T21:46:59Z</time>
      </trkpt>
      <trkpt lat="44.316" lon="6.52145">
        <ele>1900</ele>
        <time>2022-06-08T21:47:05Z</time>
      </trkpt>
      <trkpt lat="44.31609" lon="6.52153">
        <ele>1898</ele>
        <time>2022-06-08T21:47:07Z</time>
      </trkpt>
      <trkpt lat="44.31634" lon="6.52159">
        <ele>1891</ele>
        <time>2022-06-08T21:47:13Z</time>
      </trkpt>
      <trkpt lat="44.31641" lon="6.52165">
        <ele>1889</ele>
        <time>2022-06-08T21:47:15Z</time>
      </trkpt>
      <trkpt lat="44.3165" lon="6.5219">
        <ele>1896</ele>
        <time>2022-06-08T21:47:20Z</time>
      </trkpt>
      <trkpt lat="44.31663" lon="6.52204">
        <ele>1896</ele>
        <time>2022-06-08T21:47:24Z</time>
      </trkpt>
      <trkpt lat="44.31664" lon="6.52212">
        <ele>1899</ele>
        <time>2022-06-08T21:47:25Z</time>
      </trkpt>
      <trkpt lat="44.31676" lon="6.52223">
        <ele>1897</ele>
        <time>2022-06-08T21:47:29Z</time>
      </trkpt>
      <trkpt lat="44.31679" lon="6.52238">
        <ele>1901</ele>
        <time>2022-06-08T21:47:31Z</time>
      </trkpt>
      <trkpt lat="44.31694" lon="6.52258">
        <ele>1902</ele>
        <time>2022-06-08T21:47:36Z</time>
      </trkpt>
      <trkpt lat="44.31719" lon="6.52277">
        <ele>1899</ele>
        <time>2022-06-08T21:47:43Z</time>
      </trkpt>
      <trkpt lat="44.31756" lon="6.52312">
        <ele>1904</ele>
        <time>2022-06-08T21:47:53Z</time>
      </trkpt>
      <trkpt lat="44.31769" lon="6.52313">
        <ele>1900</ele>
        <time>2022-06-08T21:47:56Z</time>
      </trkpt>
      <trkpt lat="44.31779" lon="6.52309">
        <ele>1893</ele>
        <time>2022-06-08T21:47:59Z</time>
      </trkpt>
      <trkpt lat="44.31791" lon="6.52312">
        <ele>1891</ele>
        <time>2022-06-08T21:48:01Z</time>
      </trkpt>
      <trkpt lat="44.31798" lon="6.52317">
        <ele>1891</ele>
        <time>2022-06-08T21:48:03Z</time>
      </trkpt>
      <trkpt lat="44.31808" lon="6.52319">
        <ele>1889</ele>
        <time>2022-06-08T21:48:06Z</time>
      </trkpt>
      <trkpt lat="44.31818" lon="6.52328">
        <ele>1891</ele>
        <time>2022-06-08T21:48:08Z</time>
      </trkpt>
      <trkpt lat="44.31809" lon="6.52327">
        <ele>1894</ele>
        <time>2022-06-08T21:48:10Z</time>
      </trkpt>
      <trkpt lat="44.31804" lon="6.5233">
        <ele>1898</ele>
        <time>2022-06-08T21:48:12Z</time>
      </trkpt>
      <trkpt lat="44.31818" lon="6.52348">
        <ele>1904</ele>
        <time>2022-06-08T21:48:16Z</time>
      </trkpt>
      <trkpt lat="44.31816" lon="6.52349">
        <ele>1906</ele>
        <time>2022-06-08T21:48:17Z</time>
      </trkpt>
      <trkpt lat="44.31781" lon="6.5233">
        <ele>1906</ele>
        <time>2022-06-08T21:48:25Z</time>
      </trkpt>
      <trkpt lat="44.31775" lon="6.52334">
        <ele>1911</ele>
        <time>2022-06-08T21:48:27Z</time>
      </trkpt>
      <trkpt lat="44.3179" lon="6.52358">
        <ele>1921</ele>
        <time>2022-06-08T21:48:32Z</time>
      </trkpt>
      <trkpt lat="44.31805" lon="6.52374">
        <ele>1926</ele>
        <time>2022-06-08T21:48:37Z</time>
      </trkpt>
      <trkpt lat="44.31809" lon="6.52384">
        <ele>1931</ele>
        <time>2022-06-08T21:48:39Z</time>
      </trkpt>
      <trkpt lat="44.31823" lon="6.52394">
        <ele>1932</ele>
        <time>2022-06-08T21:48:42Z</time>
      </trkpt>
      <trkpt lat="44.31842" lon="6.52416">
        <ele>1939</ele>
        <time>2022-06-08T21:48:48Z</time>
      </trkpt>
      <trkpt lat="44.31842" lon="6.5242">
        <ele>1941</ele>
        <time>2022-06-08T21:48:49Z</time>
      </trkpt>
      <trkpt lat="44.31834" lon="6.52414">
        <ele>1941</ele>
        <time>2022-06-08T21:48:51Z</time>
      </trkpt>
      <trkpt lat="44.31821" lon="6.5241">
        <ele>1943</ele>
        <time>2022-06-08T21:48:54Z</time>
      </trkpt>
      <trkpt lat="44.3183" lon="6.52429">
        <ele>1951</ele>
        <time>2022-06-08T21:48:58Z</time>
      </trkpt>
      <trkpt lat="44.3183" lon="6.52432">
        <ele>1953</ele>
        <time>2022-06-08T21:48:58Z</time>
      </trkpt>
      <trkpt lat="44.3183" lon="6.5243">
        <ele>1952</ele>
        <time>2022-06-08T21:48:59Z</time>
      </trkpt>
      <trkpt lat="44.31822" lon="6.52426">
        <ele>1953</ele>
        <time>2022-06-08T21:49:01Z</time>
      </trkpt>
      <trkpt lat="44.31826" lon="6.5244">
        <ele>1959</ele>
        <time>2022-06-08T21:49:03Z</time>
      </trkpt>
      <trkpt lat="44.31823" lon="6.52441">
        <ele>1961</ele>
        <time>2022-06-08T21:49:04Z</time>
      </trkpt>
      <trkpt lat="44.31822" lon="6.52446">
        <ele>1964</ele>
        <time>2022-06-08T21:49:05Z</time>
      </trkpt>
      <trkpt lat="44.31825" lon="6.52449">
        <ele>1964</ele>
        <time>2022-06-08T21:49:06Z</time>
      </trkpt>
      <trkpt lat="44.31824" lon="6.52451">
        <ele>1966</ele>
        <time>2022-06-08T21:49:06Z</time>
      </trkpt>
      <trkpt lat="44.31797" lon="6.52434">
        <ele>1967</ele>
        <time>2022-06-08T21:49:13Z</time>
      </trkpt>
      <trkpt lat="44.31801" lon="6.52451">
        <ele>1975</ele>
        <time>2022-06-08T21:49:16Z</time>
      </trkpt>
      <trkpt lat="44.31815" lon="6.52477">
        <ele>1984</ele>
        <time>2022-06-08T21:49:21Z</time>
      </trkpt>
      <trkpt lat="44.3182" lon="6.5248">
        <ele>1984</ele>
        <time>2022-06-08T21:49:23Z</time>
      </trkpt>
      <trkpt lat="44.3184" lon="6.52511">
        <ele>1990</ele>
        <time>2022-06-08T21:49:30Z</time>
      </trkpt>
      <trkpt lat="44.31851" lon="6.52523">
        <ele>1990</ele>
        <time>2022-06-08T21:49:33Z</time>
      </trkpt>
      <trkpt lat="44.31853" lon="6.52529">
        <ele>1991</ele>
        <time>2022-06-08T21:49:34Z</time>
      </trkpt>
      <trkpt lat="44.31842" lon="6.52519">
        <ele>1993</ele>
        <time>2022-06-08T21:49:37Z</time>
      </trkpt>
      <trkpt lat="44.31822" lon="6.52512">
        <ele>2000</ele>
        <time>2022-06-08T21:49:42Z</time>
      </trkpt>
      <trkpt lat="44.31816" lon="6.52507">
        <ele>2000</ele>
        <time>2022-06-08T21:49:43Z</time>
      </trkpt>
      <trkpt lat="44.31804" lon="6.52503">
        <ele>2003</ele>
        <time>2022-06-08T21:49:46Z</time>
      </trkpt>
      <trkpt lat="44.31799" lon="6.52498">
        <ele>2003</ele>
        <time>2022-06-08T21:49:48Z</time>
      </trkpt>
      <trkpt lat="44.31778" lon="6.52494">
        <ele>2009</ele>
        <time>2022-06-08T21:49:53Z</time>
      </trkpt>
      <trkpt lat="44.31758" lon="6.52486">
        <ele>2013</ele>
        <time>2022-06-08T21:49:58Z</time>
      </trkpt>
      <trkpt lat="44.31742" lon="6.52477">
        <ele>2015</ele>
        <time>2022-06-08T21:50:02Z</time>
      </trkpt>
      <trkpt lat="44.31734" lon="6.52468">
        <ele>2013</ele>
        <time>2022-06-08T21:50:04Z</time>
      </trkpt>
      <trkpt lat="44.31731" lon="6.52468">
        <ele>2014</ele>
        <time>2022-06-08T21:50:05Z</time>
      </trkpt>
      <trkpt lat="44.31733" lon="6.52486">
        <ele>2024</ele>
        <time>2022-06-08T21:50:08Z</time>
      </trkpt>
      <trkpt lat="44.3175" lon="6.52522">
        <ele>2036</ele>
        <time>2022-06-08T21:50:15Z</time>
      </trkpt>
      <trkpt lat="44.31755" lon="6.5252">
        <ele>2032</ele>
        <time>2022-06-08T21:50:16Z</time>
      </trkpt>
      <trkpt lat="44.31771" lon="6.5253">
        <ele>2030</ele>
        <time>2022-06-08T21:50:20Z</time>
      </trkpt>
      <trkpt lat="44.31774" lon="6.52541">
        <ele>2034</ele>
        <time>2022-06-08T21:50:22Z</time>
      </trkpt>
      <trkpt lat="44.31783" lon="6.52556">
        <ele>2038</ele>
        <time>2022-06-08T21:50:25Z</time>
      </trkpt>
      <trkpt lat="44.31807" lon="6.52587">
        <ele>2041</ele>
        <time>2022-06-08T21:50:33Z</time>
      </trkpt>
      <trkpt lat="44.31818" lon="6.52591">
        <ele>2037</ele>
        <time>2022-06-08T21:50:36Z</time>
      </trkpt>
      <trkpt lat="44.31822" lon="6.52605">
        <ele>2039</ele>
        <time>2022-06-08T21:50:38Z</time>
      </trkpt>
      <trkpt lat="44.31817" lon="6.52616">
        <ele>2043</ele>
        <time>2022-06-08T21:50:40Z</time>
      </trkpt>
      <trkpt lat="44.31799" lon="6.52632">
        <ele>2052</ele>
        <time>2022-06-08T21:50:45Z</time>
      </trkpt>
      <trkpt lat="44.31754" lon="6.52663">
        <ele>2069</ele>
        <time>2022-06-08T21:50:57Z</time>
      </trkpt>
      <trkpt lat="44.31724" lon="6.52699">
        <ele>2073</ele>
        <time>2022-06-08T21:51:06Z</time>
      </trkpt>
      <trkpt lat="44.31714" lon="6.52713">
        <ele>2074</ele>
        <time>2022-06-08T21:51:10Z</time>
      </trkpt>
      <trkpt lat="44.31709" lon="6.52725">
        <ele>2074</ele>
        <time>2022-06-08T21:51:12Z</time>
      </trkpt>
      <trkpt lat="44.31683" lon="6.52753">
        <ele>2077</ele>
        <time>2022-06-08T21:51:20Z</time>
      </trkpt>
      <trkpt lat="44.31667" lon="6.52761">
        <ele>2081</ele>
        <time>2022-06-08T21:51:24Z</time>
      </trkpt>
      <trkpt lat="44.31664" lon="6.52771">
        <ele>2080</ele>
        <time>2022-06-08T21:51:25Z</time>
      </trkpt>
      <trkpt lat="44.31654" lon="6.52785">
        <ele>2081</ele>
        <time>2022-06-08T21:51:29Z</time>
      </trkpt>
      <trkpt lat="44.31645" lon="6.52806">
        <ele>2080</ele>
        <time>2022-06-08T21:51:33Z</time>
      </trkpt>
      <trkpt lat="44.31623" lon="6.52844">
        <ele>2080</ele>
        <time>2022-06-08T21:51:41Z</time>
      </trkpt>
      <trkpt lat="44.31604" lon="6.52863">
        <ele>2081</ele>
        <time>2022-06-08T21:51:46Z</time>
      </trkpt>
      <trkpt lat="44.31576" lon="6.52878">
        <ele>2084</ele>
        <time>2022-06-08T21:51:53Z</time>
      </trkpt>
      <trkpt lat="44.31561" lon="6.52898">
        <ele>2084</ele>
        <time>2022-06-08T21:51:58Z</time>
      </trkpt>
      <trkpt lat="44.31561" lon="6.52903">
        <ele>2083</ele>
        <time>2022-06-08T21:51:59Z</time>
      </trkpt>
      <trkpt lat="44.31545" lon="6.52901">
        <ele>2089</ele>
        <time>2022-06-08T21:52:03Z</time>
      </trkpt>
      <trkpt lat="44.31546" lon="6.52898">
        <ele>2089</ele>
        <time>2022-06-08T21:52:03Z</time>
      </trkpt>
      <trkpt lat="44.31544" lon="6.52901">
        <ele>2089</ele>
        <time>2022-06-08T21:52:04Z</time>
      </trkpt>
      <trkpt lat="44.31538" lon="6.52902">
        <ele>2091</ele>
        <time>2022-06-08T21:52:06Z</time>
      </trkpt>
      <trkpt lat="44.31516" lon="6.52931">
        <ele>2096</ele>
        <time>2022-06-08T21:52:13Z</time>
      </trkpt>
      <trkpt lat="44.31518" lon="6.52937">
        <ele>2096</ele>
        <time>2022-06-08T21:52:14Z</time>
      </trkpt>
      <trkpt lat="44.31521" lon="6.52932">
        <ele>2094</ele>
        <time>2022-06-08T21:52:15Z</time>
      </trkpt>
      <trkpt lat="44.31527" lon="6.5293">
        <ele>2092</ele>
        <time>2022-06-08T21:52:16Z</time>
      </trkpt>
      <trkpt lat="44.31529" lon="6.52932">
        <ele>2092</ele>
        <time>2022-06-08T21:52:17Z</time>
      </trkpt>
      <trkpt lat="44.31525" lon="6.52941">
        <ele>2094</ele>
        <time>2022-06-08T21:52:19Z</time>
      </trkpt>
      <trkpt lat="44.31525" lon="6.52945">
        <ele>2094</ele>
        <time>2022-06-08T21:52:19Z</time>
      </trkpt>
      <trkpt lat="44.31528" lon="6.52948">
        <ele>2094</ele>
        <time>2022-06-08T21:52:20Z</time>
      </trkpt>
      <trkpt lat="44.31521" lon="6.52951">
        <ele>2096</ele>
        <time>2022-06-08T21:52:22Z</time>
      </trkpt>
      <trkpt lat="44.31522" lon="6.52955">
        <ele>2096</ele>
        <time>2022-06-08T21:52:23Z</time>
      </trkpt>
      <trkpt lat="44.31527" lon="6.52956">
        <ele>2095</ele>
        <time>2022-06-08T21:52:24Z</time>
      </trkpt>
      <trkpt lat="44.31526" lon="6.52958">
        <ele>2095</ele>
        <time>2022-06-08T21:52:24Z</time>
      </trkpt>
      <trkpt lat="44.31531" lon="6.5296">
        <ele>2094</ele>
        <time>2022-06-08T21:52:25Z</time>
      </trkpt>
      <trkpt lat="44.31542" lon="6.52949">
        <ele>2090</ele>
        <time>2022-06-08T21:52:29Z</time>
      </trkpt>
      <trkpt lat="44.31547" lon="6.52947">
        <ele>2089</ele>
        <time>2022-06-08T21:52:30Z</time>
      </trkpt>
      <trkpt lat="44.31559" lon="6.52951">
        <ele>2087</ele>
        <time>2022-06-08T21:52:33Z</time>
      </trkpt>
      <trkpt lat="44.31574" lon="6.52967">
        <ele>2086</ele>
        <time>2022-06-08T21:52:37Z</time>
      </trkpt>
      <trkpt lat="44.31593" lon="6.52979">
        <ele>2086</ele>
        <time>2022-06-08T21:52:42Z</time>
      </trkpt>
      <trkpt lat="44.31591" lon="6.52974">
        <ele>2085</ele>
        <time>2022-06-08T21:52:43Z</time>
      </trkpt>
      <trkpt lat="44.31587" lon="6.52974">
        <ele>2086</ele>
        <time>2022-06-08T21:52:44Z</time>
      </trkpt>
      <trkpt lat="44.3159" lon="6.52971">
        <ele>2085</ele>
        <time>2022-06-08T21:52:45Z</time>
      </trkpt>
      <trkpt lat="44.31587" lon="6.52979">
        <ele>2087</ele>
        <time>2022-06-08T21:52:46Z</time>
      </trkpt>
      <trkpt lat="44.31586" lon="6.52974">
        <ele>2086</ele>
        <time>2022-06-08T21:52:47Z</time>
      </trkpt>
      <trkpt lat="44.31591" lon="6.52973">
        <ele>2085</ele>
        <time>2022-06-08T21:52:48Z</time>
      </trkpt>
      <trkpt lat="44.31591" lon="6.52977">
        <ele>2086</ele>
        <time>2022-06-08T21:52:49Z</time>
      </trkpt>
      <trkpt lat="44.31587" lon="6.52973">
        <ele>2085</ele>
        <time>2022-06-08T21:52:50Z</time>
      </trkpt>
      <trkpt lat="44.31586" lon="6.52976">
        <ele>2086</ele>
        <time>2022-06-08T21:52:51Z</time>
      </trkpt>
      <trkpt lat="44.31588" lon="6.52971">
        <ele>2085</ele>
        <time>2022-06-08T21:52:52Z</time>
      </trkpt>
      <trkpt lat="44.31593" lon="6.52983">
        <ele>2087</ele>
        <time>2022-06-08T21:52:54Z</time>
      </trkpt>
      <trkpt lat="44.31596" lon="6.53">
        <ele>2091</ele>
        <time>2022-06-08T21:52:57Z</time>
      </trkpt>
      <trkpt lat="44.31595" lon="6.53007">
        <ele>2094</ele>
        <time>2022-06-08T21:52:58Z</time>
      </trkpt>
      <trkpt lat="44.316" lon="6.53012">
        <ele>2096</ele>
        <time>2022-06-08T21:52:59Z</time>
      </trkpt>
      <trkpt lat="44.31621" lon="6.52997">
        <ele>2089</ele>
        <time>2022-06-08T21:53:05Z</time>
      </trkpt>
      <trkpt lat="44.31634" lon="6.52998">
        <ele>2088</ele>
        <time>2022-06-08T21:53:08Z</time>
      </trkpt>
      <trkpt lat="44.31637" lon="6.53009">
        <ele>2092</ele>
        <time>2022-06-08T21:53:10Z</time>
      </trkpt>
      <trkpt lat="44.31634" lon="6.53042">
        <ele>2104</ele>
        <time>2022-06-08T21:53:15Z</time>
      </trkpt>
      <trkpt lat="44.31637" lon="6.53059">
        <ele>2110</ele>
        <time>2022-06-08T21:53:18Z</time>
      </trkpt>
      <trkpt lat="44.31649" lon="6.53056">
        <ele>2107</ele>
        <time>2022-06-08T21:53:21Z</time>
      </trkpt>
      <trkpt lat="44.31658" lon="6.53047">
        <ele>2103</ele>
        <time>2022-06-08T21:53:24Z</time>
      </trkpt>
      <trkpt lat="44.31666" lon="6.53045">
        <ele>2102</ele>
        <time>2022-06-08T21:53:26Z</time>
      </trkpt>
      <trkpt lat="44.31671" lon="6.53047">
        <ele>2102</ele>
        <time>2022-06-08T21:53:27Z</time>
      </trkpt>
      <trkpt lat="44.31684" lon="6.53067">
        <ele>2107</ele>
        <time>2022-06-08T21:53:31Z</time>
      </trkpt>
      <trkpt lat="44.31685" lon="6.53077">
        <ele>2111</ele>
        <time>2022-06-08T21:53:33Z</time>
      </trkpt>
      <trkpt lat="44.31694" lon="6.53093">
        <ele>2117</ele>
        <time>2022-06-08T21:53:37Z</time>
      </trkpt>
      <trkpt lat="44.31699" lon="6.53094">
        <ele>2117</ele>
        <time>2022-06-08T21:53:38Z</time>
      </trkpt>
      <trkpt lat="44.31707" lon="6.53081">
        <ele>2111</ele>
        <time>2022-06-08T21:53:41Z</time>
      </trkpt>
      <trkpt lat="44.31713" lon="6.53097">
        <ele>2118</ele>
        <time>2022-06-08T21:53:44Z</time>
      </trkpt>
      <trkpt lat="44.3172" lon="6.53104">
        <ele>2121</ele>
        <time>2022-06-08T21:53:46Z</time>
      </trkpt>
      <trkpt lat="44.31726" lon="6.531">
        <ele>2119</ele>
        <time>2022-06-08T21:53:47Z</time>
      </trkpt>
      <trkpt lat="44.31737" lon="6.53108">
        <ele>2122</ele>
        <time>2022-06-08T21:53:50Z</time>
      </trkpt>
      <trkpt lat="44.31756" lon="6.53116">
        <ele>2125</ele>
        <time>2022-06-08T21:53:55Z</time>
      </trkpt>
      <trkpt lat="44.31764" lon="6.53116">
        <ele>2124</ele>
        <time>2022-06-08T21:53:57Z</time>
      </trkpt>
      <trkpt lat="44.3177" lon="6.53119">
        <ele>2125</ele>
        <time>2022-06-08T21:53:58Z</time>
      </trkpt>
      <trkpt lat="44.31763" lon="6.53118">
        <ele>2125</ele>
        <time>2022-06-08T21:54:00Z</time>
      </trkpt>
      <trkpt lat="44.31756" lon="6.53125">
        <ele>2129</ele>
        <time>2022-06-08T21:54:02Z</time>
      </trkpt>
      <trkpt lat="44.31735" lon="6.53135">
        <ele>2135</ele>
        <time>2022-06-08T21:54:07Z</time>
      </trkpt>
      <trkpt lat="44.31728" lon="6.53136">
        <ele>2136</ele>
        <time>2022-06-08T21:54:09Z</time>
      </trkpt>
      <trkpt lat="44.31723" lon="6.53144">
        <ele>2140</ele>
        <time>2022-06-08T21:54:10Z</time>
      </trkpt>
      <trkpt lat="44.31717" lon="6.53142">
        <ele>2139</ele>
        <time>2022-06-08T21:54:12Z</time>
      </trkpt>
      <trkpt lat="44.317" lon="6.53148">
        <ele>2142</ele>
        <time>2022-06-08T21:54:16Z</time>
      </trkpt>
      <trkpt lat="44.31681" lon="6.5316">
        <ele>2148</ele>
        <time>2022-06-08T21:54:21Z</time>
      </trkpt>
      <trkpt lat="44.31676" lon="6.53166">
        <ele>2151</ele>
        <time>2022-06-08T21:54:22Z</time>
      </trkpt>
      <trkpt lat="44.31667" lon="6.53161">
        <ele>2148</ele>
        <time>2022-06-08T21:54:25Z</time>
      </trkpt>
      <trkpt lat="44.31659" lon="6.53163">
        <ele>2150</ele>
        <time>2022-06-08T21:54:26Z</time>
      </trkpt>
      <trkpt lat="44.31652" lon="6.53173">
        <ele>2156</ele>
        <time>2022-06-08T21:54:29Z</time>
      </trkpt>
      <trkpt lat="44.3165" lon="6.5318">
        <ele>2160</ele>
        <time>2022-06-08T21:54:30Z</time>
      </trkpt>
      <trkpt lat="44.31643" lon="6.53178">
        <ele>2159</ele>
        <time>2022-06-08T21:54:32Z</time>
      </trkpt>
      <trkpt lat="44.31632" lon="6.5317">
        <ele>2156</ele>
        <time>2022-06-08T21:54:35Z</time>
      </trkpt>
      <trkpt lat="44.31609" lon="6.53168">
        <ele>2157</ele>
        <time>2022-06-08T21:54:40Z</time>
      </trkpt>
      <trkpt lat="44.31592" lon="6.53172">
        <ele>2160</ele>
        <time>2022-06-08T21:54:44Z</time>
      </trkpt>
      <trkpt lat="44.31616" lon="6.53188">
        <ele>2166</ele>
        <time>2022-06-08T21:54:50Z</time>
      </trkpt>
      <trkpt lat="44.31633" lon="6.53205">
        <ele>2174</ele>
        <time>2022-06-08T21:54:55Z</time>
      </trkpt>
      <trkpt lat="44.31636" lon="6.53215">
        <ele>2180</ele>
        <time>2022-06-08T21:54:57Z</time>
      </trkpt>
      <trkpt lat="44.31652" lon="6.53208">
        <ele>2176</ele>
        <time>2022-06-08T21:55:01Z</time>
      </trkpt>
      <trkpt lat="44.31662" lon="6.53211">
        <ele>2177</ele>
        <time>2022-06-08T21:55:03Z</time>
      </trkpt>
      <trkpt lat="44.31679" lon="6.53207">
        <ele>2175</ele>
        <time>2022-06-08T21:55:07Z</time>
      </trkpt>
      <trkpt lat="44.31701" lon="6.53206">
        <ele>2175</ele>
        <time>2022-06-08T21:55:12Z</time>
      </trkpt>
      <trkpt lat="44.31712" lon="6.53208">
        <ele>2177</ele>
        <time>2022-06-08T21:55:15Z</time>
      </trkpt>
      <trkpt lat="44.31726" lon="6.53204">
        <ele>2175</ele>
        <time>2022-06-08T21:55:18Z</time>
      </trkpt>
      <trkpt lat="44.31775" lon="6.53212">
        <ele>2178</ele>
        <time>2022-06-08T21:55:30Z</time>
      </trkpt>
      <trkpt lat="44.31796" lon="6.53223">
        <ele>2183</ele>
        <time>2022-06-08T21:55:35Z</time>
      </trkpt>
      <trkpt lat="44.31803" lon="6.53218">
        <ele>2179</ele>
        <time>2022-06-08T21:55:37Z</time>
      </trkpt>
      <trkpt lat="44.31817" lon="6.53216">
        <ele>2176</ele>
        <time>2022-06-08T21:55:40Z</time>
      </trkpt>
      <trkpt lat="44.31838" lon="6.53231">
        <ele>2182</ele>
        <time>2022-06-08T21:55:46Z</time>
      </trkpt>
      <trkpt lat="44.31864" lon="6.5324">
        <ele>2180</ele>
        <time>2022-06-08T21:55:52Z</time>
      </trkpt>
      <trkpt lat="44.31888" lon="6.53268">
        <ele>2186</ele>
        <time>2022-06-08T21:55:59Z</time>
      </trkpt>
      <trkpt lat="44.31928" lon="6.5335">
        <ele>2197</ele>
        <time>2022-06-08T21:56:16Z</time>
      </trkpt>
      <trkpt lat="44.31927" lon="6.5336">
        <ele>2201</ele>
        <time>2022-06-08T21:56:17Z</time>
      </trkpt>
      <trkpt lat="44.31934" lon="6.53392">
        <ele>2208</ele>
        <time>2022-06-08T21:56:23Z</time>
      </trkpt>
      <trkpt lat="44.31934" lon="6.53411">
        <ele>2214</ele>
        <time>2022-06-08T21:56:26Z</time>
      </trkpt>
      <trkpt lat="44.31951" lon="6.53433">
        <ele>2214</ele>
        <time>2022-06-08T21:56:32Z</time>
      </trkpt>
      <trkpt lat="44.31955" lon="6.53451">
        <ele>2218</ele>
        <time>2022-06-08T21:56:35Z</time>
      </trkpt>
      <trkpt lat="44.3196" lon="6.53462">
        <ele>2219</ele>
        <time>2022-06-08T21:56:37Z</time>
      </trkpt>
      <trkpt lat="44.31966" lon="6.53467">
        <ele>2219</ele>
        <time>2022-06-08T21:56:39Z</time>
      </trkpt>
      <trkpt lat="44.31971" lon="6.53481">
        <ele>2222</ele>
        <time>2022-06-08T21:56:41Z</time>
      </trkpt>
      <trkpt lat="44.31968" lon="6.53491">
        <ele>2226</ele>
        <time>2022-06-08T21:56:43Z</time>
      </trkpt>
      <trkpt lat="44.31966" lon="6.5349">
        <ele>2226</ele>
        <time>2022-06-08T21:56:44Z</time>
      </trkpt>
      <trkpt lat="44.31964" lon="6.53511">
        <ele>2233</ele>
        <time>2022-06-08T21:56:47Z</time>
      </trkpt>
      <trkpt lat="44.31972" lon="6.53535">
        <ele>2235</ele>
        <time>2022-06-08T21:56:52Z</time>
      </trkpt>
      <trkpt lat="44.31971" lon="6.53539">
        <ele>2236</ele>
        <time>2022-06-08T21:56:52Z</time>
      </trkpt>
      <trkpt lat="44.31974" lon="6.5354">
        <ele>2236</ele>
        <time>2022-06-08T21:56:53Z</time>
      </trkpt>
      <trkpt lat="44.31974" lon="6.53543">
        <ele>2236</ele>
        <time>2022-06-08T21:56:53Z</time>
      </trkpt>
      <trkpt lat="44.31982" lon="6.53528">
        <ele>2231</ele>
        <time>2022-06-08T21:56:57Z</time>
      </trkpt>
      <trkpt lat="44.31988" lon="6.53526">
        <ele>2229</ele>
        <time>2022-06-08T21:56:58Z</time>
      </trkpt>
      <trkpt lat="44.31992" lon="6.53519">
        <ele>2226</ele>
        <time>2022-06-08T21:56:59Z</time>
      </trkpt>
      <trkpt lat="44.32002" lon="6.53519">
        <ele>2224</ele>
        <time>2022-06-08T21:57:02Z</time>
      </trkpt>
      <trkpt lat="44.32007" lon="6.53527">
        <ele>2227</ele>
        <time>2022-06-08T21:57:04Z</time>
      </trkpt>
      <trkpt lat="44.32009" lon="6.53539">
        <ele>2230</ele>
        <time>2022-06-08T21:57:06Z</time>
      </trkpt>
      <trkpt lat="44.32013" lon="6.53546">
        <ele>2233</ele>
        <time>2022-06-08T21:57:07Z</time>
      </trkpt>
      <trkpt lat="44.3202" lon="6.53551">
        <ele>2236</ele>
        <time>2022-06-08T21:57:09Z</time>
      </trkpt>
      <trkpt lat="44.32025" lon="6.53562">
        <ele>2240</ele>
        <time>2022-06-08T21:57:11Z</time>
      </trkpt>
      <trkpt lat="44.32028" lon="6.53592">
        <ele>2249</ele>
        <time>2022-06-08T21:57:16Z</time>
      </trkpt>
      <trkpt lat="44.32029" lon="6.53595">
        <ele>2251</ele>
        <time>2022-06-08T21:57:17Z</time>
      </trkpt>
      <trkpt lat="44.32034" lon="6.53597">
        <ele>2253</ele>
        <time>2022-06-08T21:57:18Z</time>
      </trkpt>
      <trkpt lat="44.32055" lon="6.53585">
        <ele>2255</ele>
        <time>2022-06-08T21:57:23Z</time>
      </trkpt>
      <trkpt lat="44.32056" lon="6.5357">
        <ele>2251</ele>
        <time>2022-06-08T21:57:26Z</time>
      </trkpt>
      <trkpt lat="44.32068" lon="6.53552">
        <ele>2250</ele>
        <time>2022-06-08T21:57:30Z</time>
      </trkpt>
      <trkpt lat="44.32078" lon="6.53548">
        <ele>2251</ele>
        <time>2022-06-08T21:57:32Z</time>
      </trkpt>
      <trkpt lat="44.32084" lon="6.53539">
        <ele>2251</ele>
        <time>2022-06-08T21:57:34Z</time>
      </trkpt>
      <trkpt lat="44.32099" lon="6.53528">
        <ele>2255</ele>
        <time>2022-06-08T21:57:38Z</time>
      </trkpt>
      <trkpt lat="44.32121" lon="6.53506">
        <ele>2258</ele>
        <time>2022-06-08T21:57:45Z</time>
      </trkpt>
      <trkpt lat="44.32117" lon="6.53511">
        <ele>2258</ele>
        <time>2022-06-08T21:57:46Z</time>
      </trkpt>
      <trkpt lat="44.32122" lon="6.53503">
        <ele>2257</ele>
        <time>2022-06-08T21:57:48Z</time>
      </trkpt>
      <trkpt lat="44.32142" lon="6.53493">
        <ele>2262</ele>
        <time>2022-06-08T21:57:53Z</time>
      </trkpt>
      <trkpt lat="44.3215" lon="6.53476">
        <ele>2258</ele>
        <time>2022-06-08T21:57:56Z</time>
      </trkpt>
      <trkpt lat="44.32162" lon="6.53459">
        <ele>2255</ele>
        <time>2022-06-08T21:58:00Z</time>
      </trkpt>
      <trkpt lat="44.32172" lon="6.53452">
        <ele>2254</ele>
        <time>2022-06-08T21:58:03Z</time>
      </trkpt>
      <trkpt lat="44.32185" lon="6.53454">
        <ele>2257</ele>
        <time>2022-06-08T21:58:06Z</time>
      </trkpt>
      <trkpt lat="44.32188" lon="6.53457">
        <ele>2259</ele>
        <time>2022-06-08T21:58:07Z</time>
      </trkpt>
      <trkpt lat="44.32205" lon="6.53458">
        <ele>2261</ele>
        <time>2022-06-08T21:58:11Z</time>
      </trkpt>
      <trkpt lat="44.32228" lon="6.53451">
        <ele>2260</ele>
        <time>2022-06-08T21:58:16Z</time>
      </trkpt>
      <trkpt lat="44.32244" lon="6.53458">
        <ele>2267</ele>
        <time>2022-06-08T21:58:20Z</time>
      </trkpt>
      <trkpt lat="44.32254" lon="6.53454">
        <ele>2266</ele>
        <time>2022-06-08T21:58:22Z</time>
      </trkpt>
      <trkpt lat="44.32264" lon="6.53472">
        <ele>2280</ele>
        <time>2022-06-08T21:58:26Z</time>
      </trkpt>
      <trkpt lat="44.32272" lon="6.53481">
        <ele>2287</ele>
        <time>2022-06-08T21:58:29Z</time>
      </trkpt>
      <trkpt lat="44.32291" lon="6.53462">
        <ele>2279</ele>
        <time>2022-06-08T21:58:34Z</time>
      </trkpt>
      <trkpt lat="44.32307" lon="6.53435">
        <ele>2265</ele>
        <time>2022-06-08T21:58:40Z</time>
      </trkpt>
      <trkpt lat="44.32318" lon="6.53432">
        <ele>2266</ele>
        <time>2022-06-08T21:58:43Z</time>
      </trkpt>
      <trkpt lat="44.32326" lon="6.53424">
        <ele>2262</ele>
        <time>2022-06-08T21:58:45Z</time>
      </trkpt>
      <trkpt lat="44.32333" lon="6.53421">
        <ele>2262</ele>
        <time>2022-06-08T21:58:47Z</time>
      </trkpt>
      <trkpt lat="44.32351" lon="6.53423">
        <ele>2269</ele>
        <time>2022-06-08T21:58:51Z</time>
      </trkpt>
      <trkpt lat="44.32362" lon="6.53412">
        <ele>2266</ele>
        <time>2022-06-08T21:58:54Z</time>
      </trkpt>
      <trkpt lat="44.3237" lon="6.53412">
        <ele>2269</ele>
        <time>2022-06-08T21:58:56Z</time>
      </trkpt>
      <trkpt lat="44.32387" lon="6.53424">
        <ele>2281</ele>
        <time>2022-06-08T21:59:00Z</time>
      </trkpt>
      <trkpt lat="44.32397" lon="6.53423">
        <ele>2283</ele>
        <time>2022-06-08T21:59:03Z</time>
      </trkpt>
      <trkpt lat="44.32406" lon="6.53418">
        <ele>2284</ele>
        <time>2022-06-08T21:59:05Z</time>
      </trkpt>
      <trkpt lat="44.32407" lon="6.53413">
        <ele>2281</ele>
        <time>2022-06-08T21:59:06Z</time>
      </trkpt>
      <trkpt lat="44.32403" lon="6.53421">
        <ele>2284</ele>
        <time>2022-06-08T21:59:07Z</time>
      </trkpt>
      <trkpt lat="44.32409" lon="6.53422">
        <ele>2287</ele>
        <time>2022-06-08T21:59:09Z</time>
      </trkpt>
      <trkpt lat="44.32466" lon="6.53414">
        <ele>2284</ele>
        <time>2022-06-08T21:59:22Z</time>
      </trkpt>
      <trkpt lat="44.32475" lon="6.53415">
        <ele>2285</ele>
        <time>2022-06-08T21:59:24Z</time>
      </trkpt>
      <trkpt lat="44.32518" lon="6.53429">
        <ele>2283</ele>
        <time>2022-06-08T21:59:35Z</time>
      </trkpt>
      <trkpt lat="44.32521" lon="6.53441">
        <ele>2284</ele>
        <time>2022-06-08T21:59:37Z</time>
      </trkpt>
      <trkpt lat="44.32516" lon="6.53453">
        <ele>2286</ele>
        <time>2022-06-08T21:59:39Z</time>
      </trkpt>
      <trkpt lat="44.32509" lon="6.53448">
        <ele>2287</ele>
        <time>2022-06-08T21:59:41Z</time>
      </trkpt>
      <trkpt lat="44.3251" lon="6.53453">
        <ele>2288</ele>
        <time>2022-06-08T21:59:42Z</time>
      </trkpt>
      <trkpt lat="44.3248" lon="6.53448">
        <ele>2292</ele>
        <time>2022-06-08T21:59:49Z</time>
      </trkpt>
      <trkpt lat="44.32467" lon="6.53456">
        <ele>2295</ele>
        <time>2022-06-08T21:59:52Z</time>
      </trkpt>
      <trkpt lat="44.3247" lon="6.53467">
        <ele>2297</ele>
        <time>2022-06-08T21:59:54Z</time>
      </trkpt>
      <trkpt lat="44.32469" lon="6.53486">
        <ele>2302</ele>
        <time>2022-06-08T21:59:57Z</time>
      </trkpt>
      <trkpt lat="44.32463" lon="6.5353">
        <ele>2309</ele>
        <time>2022-06-08T22:00:05Z</time>
      </trkpt>
      <trkpt lat="44.32445" lon="6.53604">
        <ele>2326</ele>
        <time>2022-06-08T22:00:18Z</time>
      </trkpt>
      <trkpt lat="44.3244" lon="6.53667">
        <ele>2341</ele>
        <time>2022-06-08T22:00:28Z</time>
      </trkpt>
      <trkpt lat="44.3243" lon="6.53684">
        <ele>2345</ele>
        <time>2022-06-08T22:00:32Z</time>
      </trkpt>
      <trkpt lat="44.32426" lon="6.53713">
        <ele>2346</ele>
        <time>2022-06-08T22:00:37Z</time>
      </trkpt>
      <trkpt lat="44.32416" lon="6.53729">
        <ele>2349</ele>
        <time>2022-06-08T22:00:41Z</time>
      </trkpt>
      <trkpt lat="44.32411" lon="6.53758">
        <ele>2352</ele>
        <time>2022-06-08T22:00:45Z</time>
      </trkpt>
      <trkpt lat="44.32406" lon="6.53763">
        <ele>2356</ele>
        <time>2022-06-08T22:00:47Z</time>
      </trkpt>
      <trkpt lat="44.32399" lon="6.53782">
        <ele>2362</ele>
        <time>2022-06-08T22:00:51Z</time>
      </trkpt>
      <trkpt lat="44.32399" lon="6.53792">
        <ele>2362</ele>
        <time>2022-06-08T22:00:52Z</time>
      </trkpt>
      <trkpt lat="44.32406" lon="6.53799">
        <ele>2359</ele>
        <time>2022-06-08T22:00:54Z</time>
      </trkpt>
      <trkpt lat="44.3241" lon="6.538">
        <ele>2357</ele>
        <time>2022-06-08T22:00:55Z</time>
      </trkpt>
      <trkpt lat="44.32403" lon="6.53802">
        <ele>2361</ele>
        <time>2022-06-08T22:00:57Z</time>
      </trkpt>
      <trkpt lat="44.32404" lon="6.53796">
        <ele>2360</ele>
        <time>2022-06-08T22:00:58Z</time>
      </trkpt>
      <trkpt lat="44.32412" lon="6.53799">
        <ele>2356</ele>
        <time>2022-06-08T22:01:00Z</time>
      </trkpt>
      <trkpt lat="44.32411" lon="6.53802">
        <ele>2357</ele>
        <time>2022-06-08T22:01:00Z</time>
      </trkpt>
      <trkpt lat="44.32415" lon="6.53802">
        <ele>2355</ele>
        <time>2022-06-08T22:01:01Z</time>
      </trkpt>
      <trkpt lat="44.32412" lon="6.53803">
        <ele>2357</ele>
        <time>2022-06-08T22:01:02Z</time>
      </trkpt>
      <trkpt lat="44.32407" lon="6.53832">
        <ele>2362</ele>
        <time>2022-06-08T22:01:07Z</time>
      </trkpt>
      <trkpt lat="44.32409" lon="6.53838">
        <ele>2362</ele>
        <time>2022-06-08T22:01:08Z</time>
      </trkpt>
      <trkpt lat="44.32408" lon="6.53849">
        <ele>2365</ele>
        <time>2022-06-08T22:01:10Z</time>
      </trkpt>
      <trkpt lat="44.32405" lon="6.53854">
        <ele>2368</ele>
        <time>2022-06-08T22:01:11Z</time>
      </trkpt>
      <trkpt lat="44.32411" lon="6.53864">
        <ele>2367</ele>
        <time>2022-06-08T22:01:13Z</time>
      </trkpt>
      <trkpt lat="44.32417" lon="6.53863">
        <ele>2364</ele>
        <time>2022-06-08T22:01:15Z</time>
      </trkpt>
      <trkpt lat="44.32423" lon="6.53868">
        <ele>2365</ele>
        <time>2022-06-08T22:01:16Z</time>
      </trkpt>
      <trkpt lat="44.32424" lon="6.53884">
        <ele>2369</ele>
        <time>2022-06-08T22:01:19Z</time>
      </trkpt>
      <trkpt lat="44.32421" lon="6.53906">
        <ele>2374</ele>
        <time>2022-06-08T22:01:23Z</time>
      </trkpt>
      <trkpt lat="44.32426" lon="6.5392">
        <ele>2377</ele>
        <time>2022-06-08T22:01:25Z</time>
      </trkpt>
      <trkpt lat="44.32437" lon="6.53917">
        <ele>2376</ele>
        <time>2022-06-08T22:01:28Z</time>
      </trkpt>
      <trkpt lat="44.32444" lon="6.53931">
        <ele>2380</ele>
        <time>2022-06-08T22:01:31Z</time>
      </trkpt>
      <trkpt lat="44.32449" lon="6.53931">
        <ele>2380</ele>
        <time>2022-06-08T22:01:32Z</time>
      </trkpt>
      <trkpt lat="44.32454" lon="6.53925">
        <ele>2378</ele>
        <time>2022-06-08T22:01:33Z</time>
      </trkpt>
      <trkpt lat="44.32469" lon="6.53915">
        <ele>2376</ele>
        <time>2022-06-08T22:01:37Z</time>
      </trkpt>
      <trkpt lat="44.32472" lon="6.53916">
        <ele>2376</ele>
        <time>2022-06-08T22:01:38Z</time>
      </trkpt>
      <trkpt lat="44.32478" lon="6.53904">
        <ele>2373</ele>
        <time>2022-06-08T22:01:40Z</time>
      </trkpt>
      <trkpt lat="44.32496" lon="6.53904">
        <ele>2373</ele>
        <time>2022-06-08T22:01:45Z</time>
      </trkpt>
      <trkpt lat="44.32517" lon="6.53909">
        <ele>2376</ele>
        <time>2022-06-08T22:01:50Z</time>
      </trkpt>
      <trkpt lat="44.32522" lon="6.53907">
        <ele>2376</ele>
        <time>2022-06-08T22:01:51Z</time>
      </trkpt>
      <trkpt lat="44.32526" lon="6.53911">
        <ele>2378</ele>
        <time>2022-06-08T22:01:52Z</time>
      </trkpt>
      <trkpt lat="44.3254" lon="6.53914">
        <ele>2380</ele>
        <time>2022-06-08T22:01:55Z</time>
      </trkpt>
      <trkpt lat="44.32558" lon="6.53922">
        <ele>2384</ele>
        <time>2022-06-08T22:02:00Z</time>
      </trkpt>
      <trkpt lat="44.32571" lon="6.53932">
        <ele>2387</ele>
        <time>2022-06-08T22:02:03Z</time>
      </trkpt>
      <trkpt lat="44.32577" lon="6.53933">
        <ele>2388</ele>
        <time>2022-06-08T22:02:05Z</time>
      </trkpt>
      <trkpt lat="44.32567" lon="6.53956">
        <ele>2392</ele>
        <time>2022-06-08T22:02:09Z</time>
      </trkpt>
      <trkpt lat="44.32565" lon="6.5398">
        <ele>2396</ele>
        <time>2022-06-08T22:02:13Z</time>
      </trkpt>
      <trkpt lat="44.32562" lon="6.53983">
        <ele>2397</ele>
        <time>2022-06-08T22:02:14Z</time>
      </trkpt>
      <trkpt lat="44.32553" lon="6.53985">
        <ele>2397</ele>
        <time>2022-06-08T22:02:16Z</time>
      </trkpt>
      <trkpt lat="44.3254" lon="6.53984">
        <ele>2395</ele>
        <time>2022-06-08T22:02:19Z</time>
      </trkpt>
      <trkpt lat="44.32532" lon="6.5399">
        <ele>2396</ele>
        <time>2022-06-08T22:02:21Z</time>
      </trkpt>
      <trkpt lat="44.32525" lon="6.54006">
        <ele>2399</ele>
        <time>2022-06-08T22:02:24Z</time>
      </trkpt>
      <trkpt lat="44.32524" lon="6.54026">
        <ele>2402</ele>
        <time>2022-06-08T22:02:28Z</time>
      </trkpt>
      <trkpt lat="44.32531" lon="6.54078">
        <ele>2409</ele>
        <time>2022-06-08T22:02:37Z</time>
      </trkpt>
      <trkpt lat="44.3253" lon="6.54093">
        <ele>2412</ele>
        <time>2022-06-08T22:02:39Z</time>
      </trkpt>
      <trkpt lat="44.32516" lon="6.54125">
        <ele>2420</ele>
        <time>2022-06-08T22:02:45Z</time>
      </trkpt>
      <trkpt lat="44.3249" lon="6.54159">
        <ele>2429</ele>
        <time>2022-06-08T22:02:54Z</time>
      </trkpt>
      <trkpt lat="44.32471" lon="6.5417">
        <ele>2433</ele>
        <time>2022-06-08T22:02:59Z</time>
      </trkpt>
      <trkpt lat="44.32453" lon="6.54186">
        <ele>2439</ele>
        <time>2022-06-08T22:03:04Z</time>
      </trkpt>
      <trkpt lat="44.32447" lon="6.54186">
        <ele>2439</ele>
        <time>2022-06-08T22:03:05Z</time>
      </trkpt>
      <trkpt lat="44.32442" lon="6.54189">
        <ele>2441</ele>
        <time>2022-06-08T22:03:06Z</time>
      </trkpt>
      <trkpt lat="44.32428" lon="6.54206">
        <ele>2447</ele>
        <time>2022-06-08T22:03:11Z</time>
      </trkpt>
      <trkpt lat="44.3242" lon="6.54211">
        <ele>2449</ele>
        <time>2022-06-08T22:03:13Z</time>
      </trkpt>
      <trkpt lat="44.32417" lon="6.54211">
        <ele>2449</ele>
        <time>2022-06-08T22:03:13Z</time>
      </trkpt>
      <trkpt lat="44.32409" lon="6.542">
        <ele>2448</ele>
        <time>2022-06-08T22:03:16Z</time>
      </trkpt>
      <trkpt lat="44.32402" lon="6.54199">
        <ele>2450</ele>
        <time>2022-06-08T22:03:18Z</time>
      </trkpt>
      <trkpt lat="44.32383" lon="6.54205">
        <ele>2457</ele>
        <time>2022-06-08T22:03:22Z</time>
      </trkpt>
      <trkpt lat="44.32374" lon="6.54217">
        <ele>2462</ele>
        <time>2022-06-08T22:03:25Z</time>
      </trkpt>
      <trkpt lat="44.32361" lon="6.54226">
        <ele>2467</ele>
        <time>2022-06-08T22:03:28Z</time>
      </trkpt>
      <trkpt lat="44.32356" lon="6.54216">
        <ele>2466</ele>
        <time>2022-06-08T22:03:30Z</time>
      </trkpt>
      <trkpt lat="44.32347" lon="6.54219">
        <ele>2469</ele>
        <time>2022-06-08T22:03:33Z</time>
      </trkpt>
      <trkpt lat="44.32339" lon="6.54207">
        <ele>2469</ele>
        <time>2022-06-08T22:03:35Z</time>
      </trkpt>
      <trkpt lat="44.32331" lon="6.54209">
        <ele>2471</ele>
        <time>2022-06-08T22:03:37Z</time>
      </trkpt>
      <trkpt lat="44.32322" lon="6.54216">
        <ele>2475</ele>
        <time>2022-06-08T22:03:40Z</time>
      </trkpt>
      <trkpt lat="44.32318" lon="6.54215">
        <ele>2476</ele>
        <time>2022-06-08T22:03:41Z</time>
      </trkpt>
      <trkpt lat="44.32311" lon="6.54212">
        <ele>2478</ele>
        <time>2022-06-08T22:03:42Z</time>
      </trkpt>
      <trkpt lat="44.32311" lon="6.54207">
        <ele>2477</ele>
        <time>2022-06-08T22:03:43Z</time>
      </trkpt>
      <trkpt lat="44.32307" lon="6.542">
        <ele>2477</ele>
        <time>2022-06-08T22:03:45Z</time>
      </trkpt>
      <trkpt lat="44.323" lon="6.54198">
        <ele>2479</ele>
        <time>2022-06-08T22:03:46Z</time>
      </trkpt>
      <trkpt lat="44.32294" lon="6.54178">
        <ele>2477</ele>
        <time>2022-06-08T22:03:50Z</time>
      </trkpt>
      <trkpt lat="44.32283" lon="6.54173">
        <ele>2480</ele>
        <time>2022-06-08T22:03:53Z</time>
      </trkpt>
      <trkpt lat="44.32274" lon="6.54177">
        <ele>2483</ele>
        <time>2022-06-08T22:03:55Z</time>
      </trkpt>
      <trkpt lat="44.32269" lon="6.54176">
        <ele>2485</ele>
        <time>2022-06-08T22:03:56Z</time>
      </trkpt>
      <trkpt lat="44.32264" lon="6.5417">
        <ele>2485</ele>
        <time>2022-06-08T22:03:58Z</time>
      </trkpt>
      <trkpt lat="44.32258" lon="6.54168">
        <ele>2487</ele>
        <time>2022-06-08T22:03:59Z</time>
      </trkpt>
      <trkpt lat="44.32247" lon="6.54172">
        <ele>2491</ele>
        <time>2022-06-08T22:04:02Z</time>
      </trkpt>
      <trkpt lat="44.32229" lon="6.5414">
        <ele>2494</ele>
        <time>2022-06-08T22:04:08Z</time>
      </trkpt>
      <trkpt lat="44.32224" lon="6.5414">
        <ele>2496</ele>
        <time>2022-06-08T22:04:10Z</time>
      </trkpt>
      <trkpt lat="44.32214" lon="6.54177">
        <ele>2505</ele>
        <time>2022-06-08T22:04:16Z</time>
      </trkpt>
      <trkpt lat="44.32214" lon="6.5422">
        <ele>2512</ele>
        <time>2022-06-08T22:04:23Z</time>
      </trkpt>
      <trkpt lat="44.32218" lon="6.54246">
        <ele>2514</ele>
        <time>2022-06-08T22:04:28Z</time>
      </trkpt>
      <trkpt lat="44.32228" lon="6.54263">
        <ele>2514</ele>
        <time>2022-06-08T22:04:31Z</time>
      </trkpt>
      <trkpt lat="44.3223" lon="6.54271">
        <ele>2516</ele>
        <time>2022-06-08T22:04:33Z</time>
      </trkpt>
      <trkpt lat="44.32238" lon="6.54282">
        <ele>2516</ele>
        <time>2022-06-08T22:04:36Z</time>
      </trkpt>
      <trkpt lat="44.32245" lon="6.54307">
        <ele>2522</ele>
        <time>2022-06-08T22:04:40Z</time>
      </trkpt>
      <trkpt lat="44.32252" lon="6.54315">
        <ele>2523</ele>
        <time>2022-06-08T22:04:42Z</time>
      </trkpt>
      <trkpt lat="44.32254" lon="6.54322">
        <ele>2524</ele>
        <time>2022-06-08T22:04:43Z</time>
      </trkpt>
      <trkpt lat="44.32267" lon="6.54342">
        <ele>2526</ele>
        <time>2022-06-08T22:04:48Z</time>
      </trkpt>
      <trkpt lat="44.32297" lon="6.54415">
        <ele>2537</ele>
        <time>2022-06-08T22:05:02Z</time>
      </trkpt>
      <trkpt lat="44.32312" lon="6.54459">
        <ele>2543</ele>
        <time>2022-06-08T22:05:10Z</time>
      </trkpt>
      <trkpt lat="44.32322" lon="6.54474">
        <ele>2546</ele>
        <time>2022-06-08T22:05:14Z</time>
      </trkpt>
      <trkpt lat="44.32318" lon="6.54477">
        <ele>2547</ele>
        <time>2022-06-08T22:05:15Z</time>
      </trkpt>
      <trkpt lat="44.32292" lon="6.54467">
        <ele>2544</ele>
        <time>2022-06-08T22:05:21Z</time>
      </trkpt>
      <trkpt lat="44.32296" lon="6.54485">
        <ele>2546</ele>
        <time>2022-06-08T22:05:24Z</time>
      </trkpt>
      <trkpt lat="44.32334" lon="6.5454">
        <ele>2550</ele>
        <time>2022-06-08T22:05:37Z</time>
      </trkpt>
      <trkpt lat="44.32332" lon="6.54535">
        <ele>2550</ele>
        <time>2022-06-08T22:05:38Z</time>
      </trkpt>
      <trkpt lat="44.32334" lon="6.54537">
        <ele>2550</ele>
        <time>2022-06-08T22:05:38Z</time>
      </trkpt>
      <trkpt lat="44.32331" lon="6.54537">
        <ele>2550</ele>
        <time>2022-06-08T22:05:39Z</time>
      </trkpt>
      <trkpt lat="44.32333" lon="6.54537">
        <ele>2550</ele>
        <time>2022-06-08T22:05:40Z</time>
      </trkpt>
      <trkpt lat="44.32335" lon="6.54542">
        <ele>2550</ele>
        <time>2022-06-08T22:05:40Z</time>
      </trkpt>
      <trkpt lat="44.32332" lon="6.54541">
        <ele>2550</ele>
        <time>2022-06-08T22:05:41Z</time>
      </trkpt>
      <trkpt lat="44.32326" lon="6.54555">
        <ele>2547</ele>
        <time>2022-06-08T22:05:44Z</time>
      </trkpt>
      <trkpt lat="44.32316" lon="6.54601">
        <ele>2536</ele>
        <time>2022-06-08T22:05:52Z</time>
      </trkpt>
      <trkpt lat="44.32303" lon="6.54627">
        <ele>2525</ele>
        <time>2022-06-08T22:05:57Z</time>
      </trkpt>
      <trkpt lat="44.32292" lon="6.54661">
        <ele>2514</ele>
        <time>2022-06-08T22:06:03Z</time>
      </trkpt>
      <trkpt lat="44.32271" lon="6.54753">
        <ele>2500</ele>
        <time>2022-06-08T22:06:20Z</time>
      </trkpt>
      <trkpt lat="44.32256" lon="6.54796">
        <ele>2499</ele>
        <time>2022-06-08T22:06:28Z</time>
      </trkpt>
      <trkpt lat="44.32203" lon="6.54916">
        <ele>2481</ele>
        <time>2022-06-08T22:06:51Z</time>
      </trkpt>
      <trkpt lat="44.32183" lon="6.54942">
        <ele>2476</ele>
        <time>2022-06-08T22:06:58Z</time>
      </trkpt>
      <trkpt lat="44.32184" lon="6.54944">
        <ele>2476</ele>
        <time>2022-06-08T22:06:58Z</time>
      </trkpt>
      <trkpt lat="44.32179" lon="6.54955">
        <ele>2475</ele>
        <time>2022-06-08T22:07:00Z</time>
      </trkpt>
      <trkpt lat="44.32142" lon="6.54995">
        <ele>2466</ele>
        <time>2022-06-08T22:07:11Z</time>
      </trkpt>
      <trkpt lat="44.32126" lon="6.55024">
        <ele>2459</ele>
        <time>2022-06-08T22:07:17Z</time>
      </trkpt>
      <trkpt lat="44.32113" lon="6.55035">
        <ele>2456</ele>
        <time>2022-06-08T22:07:21Z</time>
      </trkpt>
      <trkpt lat="44.32104" lon="6.55051">
        <ele>2454</ele>
        <time>2022-06-08T22:07:24Z</time>
      </trkpt>
      <trkpt lat="44.32092" lon="6.55064">
        <ele>2455</ele>
        <time>2022-06-08T22:07:28Z</time>
      </trkpt>
      <trkpt lat="44.32074" lon="6.55091">
        <ele>2451</ele>
        <time>2022-06-08T22:07:34Z</time>
      </trkpt>
      <trkpt lat="44.3206" lon="6.55115">
        <ele>2444</ele>
        <time>2022-06-08T22:07:39Z</time>
      </trkpt>
      <trkpt lat="44.32049" lon="6.55149">
        <ele>2441</ele>
        <time>2022-06-08T22:07:45Z</time>
      </trkpt>
      <trkpt lat="44.32045" lon="6.55144">
        <ele>2441</ele>
        <time>2022-06-08T22:07:47Z</time>
      </trkpt>
      <trkpt lat="44.32049" lon="6.55152">
        <ele>2441</ele>
        <time>2022-06-08T22:07:48Z</time>
      </trkpt>
      <trkpt lat="44.32024" lon="6.55175">
        <ele>2441</ele>
        <time>2022-06-08T22:07:55Z</time>
      </trkpt>
      <trkpt lat="44.31975" lon="6.55247">
        <ele>2443</ele>
        <time>2022-06-08T22:08:12Z</time>
      </trkpt>
      <trkpt lat="44.31957" lon="6.55291">
        <ele>2438</ele>
        <time>2022-06-08T22:08:20Z</time>
      </trkpt>
      <trkpt lat="44.31922" lon="6.55441">
        <ele>2454</ele>
        <time>2022-06-08T22:08:47Z</time>
      </trkpt>
      <trkpt lat="44.31909" lon="6.55482">
        <ele>2452</ele>
        <time>2022-06-08T22:08:54Z</time>
      </trkpt>
      <trkpt lat="44.31902" lon="6.55524">
        <ele>2449</ele>
        <time>2022-06-08T22:09:01Z</time>
      </trkpt>
      <trkpt lat="44.31888" lon="6.55574">
        <ele>2445</ele>
        <time>2022-06-08T22:09:10Z</time>
      </trkpt>
      <trkpt lat="44.31883" lon="6.55668">
        <ele>2450</ele>
        <time>2022-06-08T22:09:26Z</time>
      </trkpt>
      <trkpt lat="44.31889" lon="6.55722">
        <ele>2463</ele>
        <time>2022-06-08T22:09:35Z</time>
      </trkpt>
      <trkpt lat="44.31888" lon="6.55742">
        <ele>2467</ele>
        <time>2022-06-08T22:09:38Z</time>
      </trkpt>
      <trkpt lat="44.31885" lon="6.55771">
        <ele>2476</ele>
        <time>2022-06-08T22:09:43Z</time>
      </trkpt>
      <trkpt lat="44.31875" lon="6.55805">
        <ele>2485</ele>
        <time>2022-06-08T22:09:49Z</time>
      </trkpt>
      <trkpt lat="44.318" lon="6.55932">
        <ele>2490</ele>
        <time>2022-06-08T22:10:17Z</time>
      </trkpt>
      <trkpt lat="44.31729" lon="6.56018">
        <ele>2481</ele>
        <time>2022-06-08T22:10:39Z</time>
      </trkpt>
      <trkpt lat="44.31701" lon="6.56074">
        <ele>2472</ele>
        <time>2022-06-08T22:10:50Z</time>
      </trkpt>
      <trkpt lat="44.31694" lon="6.56082">
        <ele>2472</ele>
        <time>2022-06-08T22:10:52Z</time>
      </trkpt>
      <trkpt lat="44.31679" lon="6.56108">
        <ele>2466</ele>
        <time>2022-06-08T22:10:58Z</time>
      </trkpt>
      <trkpt lat="44.3161" lon="6.56198">
        <ele>2440</ele>
        <time>2022-06-08T22:11:20Z</time>
      </trkpt>
      <trkpt lat="44.31601" lon="6.56214">
        <ele>2439</ele>
        <time>2022-06-08T22:11:24Z</time>
      </trkpt>
      <trkpt lat="44.31591" lon="6.56226">
        <ele>2439</ele>
        <time>2022-06-08T22:11:27Z</time>
      </trkpt>
      <trkpt lat="44.3158" lon="6.56237">
        <ele>2440</ele>
        <time>2022-06-08T22:11:30Z</time>
      </trkpt>
      <trkpt lat="44.31542" lon="6.56265">
        <ele>2434</ele>
        <time>2022-06-08T22:11:40Z</time>
      </trkpt>
      <trkpt lat="44.3153" lon="6.56282">
        <ele>2430</ele>
        <time>2022-06-08T22:11:44Z</time>
      </trkpt>
      <trkpt lat="44.31525" lon="6.56334">
        <ele>2423</ele>
        <time>2022-06-08T22:11:53Z</time>
      </trkpt>
      <trkpt lat="44.31528" lon="6.56362">
        <ele>2419</ele>
        <time>2022-06-08T22:11:57Z</time>
      </trkpt>
      <trkpt lat="44.31521" lon="6.56411">
        <ele>2414</ele>
        <time>2022-06-08T22:12:06Z</time>
      </trkpt>
      <trkpt lat="44.31518" lon="6.5649">
        <ele>2408</ele>
        <time>2022-06-08T22:12:19Z</time>
      </trkpt>
      <trkpt lat="44.31507" lon="6.5652">
        <ele>2412</ele>
        <time>2022-06-08T22:12:24Z</time>
      </trkpt>
      <trkpt lat="44.31485" lon="6.566">
        <ele>2406</ele>
        <time>2022-06-08T22:12:39Z</time>
      </trkpt>
      <trkpt lat="44.3146" lon="6.56646">
        <ele>2401</ele>
        <time>2022-06-08T22:12:48Z</time>
      </trkpt>
      <trkpt lat="44.31458" lon="6.56654">
        <ele>2402</ele>
        <time>2022-06-08T22:12:50Z</time>
      </trkpt>
      <trkpt lat="44.31455" lon="6.56656">
        <ele>2402</ele>
        <time>2022-06-08T22:12:51Z</time>
      </trkpt>
      <trkpt lat="44.31457" lon="6.56657">
        <ele>2402</ele>
        <time>2022-06-08T22:12:51Z</time>
      </trkpt>
      <trkpt lat="44.31461" lon="6.56651">
        <ele>2402</ele>
        <time>2022-06-08T22:12:52Z</time>
      </trkpt>
      <trkpt lat="44.3146" lon="6.56646">
        <ele>2401</ele>
        <time>2022-06-08T22:12:53Z</time>
      </trkpt>
      <trkpt lat="44.31464" lon="6.56644">
        <ele>2402</ele>
        <time>2022-06-08T22:12:54Z</time>
      </trkpt>
      <trkpt lat="44.31466" lon="6.56635">
        <ele>2401</ele>
        <time>2022-06-08T22:12:56Z</time>
      </trkpt>
      <trkpt lat="44.31477" lon="6.56616">
        <ele>2403</ele>
        <time>2022-06-08T22:13:00Z</time>
      </trkpt>
      <trkpt lat="44.31487" lon="6.56586">
        <ele>2407</ele>
        <time>2022-06-08T22:13:06Z</time>
      </trkpt>
      <trkpt lat="44.31487" lon="6.56576">
        <ele>2407</ele>
        <time>2022-06-08T22:13:07Z</time>
      </trkpt>
      <trkpt lat="44.31502" lon="6.56538">
        <ele>2413</ele>
        <time>2022-06-08T22:13:14Z</time>
      </trkpt>
      <trkpt lat="44.315" lon="6.56538">
        <ele>2415</ele>
        <time>2022-06-08T22:13:15Z</time>
      </trkpt>
      <trkpt lat="44.31466" lon="6.56584">
        <ele>2398</ele>
        <time>2022-06-08T22:13:26Z</time>
      </trkpt>
      <trkpt lat="44.31449" lon="6.56601">
        <ele>2393</ele>
        <time>2022-06-08T22:13:31Z</time>
      </trkpt>
      <trkpt lat="44.31452" lon="6.56579">
        <ele>2392</ele>
        <time>2022-06-08T22:13:35Z</time>
      </trkpt>
      <trkpt lat="44.31452" lon="6.56545">
        <ele>2391</ele>
        <time>2022-06-08T22:13:40Z</time>
      </trkpt>
      <trkpt lat="44.31438" lon="6.56504">
        <ele>2383</ele>
        <time>2022-06-08T22:13:48Z</time>
      </trkpt>
      <trkpt lat="44.31436" lon="6.56468">
        <ele>2382</ele>
        <time>2022-06-08T22:13:54Z</time>
      </trkpt>
      <trkpt lat="44.31428" lon="6.56448">
        <ele>2378</ele>
        <time>2022-06-08T22:13:58Z</time>
      </trkpt>
      <trkpt lat="44.31424" lon="6.56433">
        <ele>2376</ele>
        <time>2022-06-08T22:14:00Z</time>
      </trkpt>
      <trkpt lat="44.31425" lon="6.56428">
        <ele>2376</ele>
        <time>2022-06-08T22:14:01Z</time>
      </trkpt>
      <trkpt lat="44.31412" lon="6.56407">
        <ele>2372</ele>
        <time>2022-06-08T22:14:06Z</time>
      </trkpt>
      <trkpt lat="44.31409" lon="6.56395">
        <ele>2373</ele>
        <time>2022-06-08T22:14:08Z</time>
      </trkpt>
      <trkpt lat="44.31402" lon="6.56387">
        <ele>2372</ele>
        <time>2022-06-08T22:14:10Z</time>
      </trkpt>
      <trkpt lat="44.31389" lon="6.56397">
        <ele>2366</ele>
        <time>2022-06-08T22:14:14Z</time>
      </trkpt>
      <trkpt lat="44.31373" lon="6.56399">
        <ele>2359</ele>
        <time>2022-06-08T22:14:17Z</time>
      </trkpt>
      <trkpt lat="44.31366" lon="6.56405">
        <ele>2355</ele>
        <time>2022-06-08T22:14:19Z</time>
      </trkpt>
      <trkpt lat="44.31359" lon="6.56417">
        <ele>2349</ele>
        <time>2022-06-08T22:14:22Z</time>
      </trkpt>
      <trkpt lat="44.31332" lon="6.56416">
        <ele>2339</ele>
        <time>2022-06-08T22:14:28Z</time>
      </trkpt>
      <trkpt lat="44.31313" lon="6.56424">
        <ele>2330</ele>
        <time>2022-06-08T22:14:33Z</time>
      </trkpt>
      <trkpt lat="44.3129" lon="6.5643">
        <ele>2319</ele>
        <time>2022-06-08T22:14:38Z</time>
      </trkpt>
      <trkpt lat="44.31249" lon="6.56435">
        <ele>2302</ele>
        <time>2022-06-08T22:14:48Z</time>
      </trkpt>
      <trkpt lat="44.31214" lon="6.5642">
        <ele>2292</ele>
        <time>2022-06-08T22:14:56Z</time>
      </trkpt>
      <trkpt lat="44.31209" lon="6.5642">
        <ele>2290</ele>
        <time>2022-06-08T22:14:58Z</time>
      </trkpt>
      <trkpt lat="44.31206" lon="6.56424">
        <ele>2288</ele>
        <time>2022-06-08T22:14:59Z</time>
      </trkpt>
      <trkpt lat="44.31205" lon="6.56451">
        <ele>2284</ele>
        <time>2022-06-08T22:15:03Z</time>
      </trkpt>
      <trkpt lat="44.31202" lon="6.56463">
        <ele>2281</ele>
        <time>2022-06-08T22:15:05Z</time>
      </trkpt>
      <trkpt lat="44.3119" lon="6.56466">
        <ele>2277</ele>
        <time>2022-06-08T22:15:08Z</time>
      </trkpt>
      <trkpt lat="44.31178" lon="6.5646">
        <ele>2274</ele>
        <time>2022-06-08T22:15:11Z</time>
      </trkpt>
      <trkpt lat="44.31163" lon="6.56458">
        <ele>2268</ele>
        <time>2022-06-08T22:15:15Z</time>
      </trkpt>
      <trkpt lat="44.31135" lon="6.5646">
        <ele>2256</ele>
        <time>2022-06-08T22:15:21Z</time>
      </trkpt>
      <trkpt lat="44.3113" lon="6.56457">
        <ele>2254</ele>
        <time>2022-06-08T22:15:22Z</time>
      </trkpt>
      <trkpt lat="44.31125" lon="6.56449">
        <ele>2252</ele>
        <time>2022-06-08T22:15:24Z</time>
      </trkpt>
      <trkpt lat="44.3113" lon="6.56456">
        <ele>2254</ele>
        <time>2022-06-08T22:15:26Z</time>
      </trkpt>
      <trkpt lat="44.31117" lon="6.56462">
        <ele>2249</ele>
        <time>2022-06-08T22:15:29Z</time>
      </trkpt>
      <trkpt lat="44.31116" lon="6.56422">
        <ele>2248</ele>
        <time>2022-06-08T22:15:36Z</time>
      </trkpt>
      <trkpt lat="44.31082" lon="6.56406">
        <ele>2231</ele>
        <time>2022-06-08T22:15:44Z</time>
      </trkpt>
      <trkpt lat="44.31065" lon="6.56384">
        <ele>2223</ele>
        <time>2022-06-08T22:15:49Z</time>
      </trkpt>
      <trkpt lat="44.3105" lon="6.5638">
        <ele>2216</ele>
        <time>2022-06-08T22:15:53Z</time>
      </trkpt>
      <trkpt lat="44.3104" lon="6.56365">
        <ele>2210</ele>
        <time>2022-06-08T22:15:56Z</time>
      </trkpt>
      <trkpt lat="44.31026" lon="6.56358">
        <ele>2202</ele>
        <time>2022-06-08T22:16:00Z</time>
      </trkpt>
      <trkpt lat="44.31016" lon="6.56343">
        <ele>2195</ele>
        <time>2022-06-08T22:16:03Z</time>
      </trkpt>
      <trkpt lat="44.31002" lon="6.56299">
        <ele>2183</ele>
        <time>2022-06-08T22:16:11Z</time>
      </trkpt>
      <trkpt lat="44.30988" lon="6.56279">
        <ele>2174</ele>
        <time>2022-06-08T22:16:16Z</time>
      </trkpt>
      <trkpt lat="44.30969" lon="6.56277">
        <ele>2164</ele>
        <time>2022-06-08T22:16:21Z</time>
      </trkpt>
      <trkpt lat="44.30949" lon="6.56279">
        <ele>2154</ele>
        <time>2022-06-08T22:16:25Z</time>
      </trkpt>
      <trkpt lat="44.30945" lon="6.56262">
        <ele>2150</ele>
        <time>2022-06-08T22:16:28Z</time>
      </trkpt>
      <trkpt lat="44.30919" lon="6.56247">
        <ele>2136</ele>
        <time>2022-06-08T22:16:35Z</time>
      </trkpt>
      <trkpt lat="44.30895" lon="6.5628">
        <ele>2126</ele>
        <time>2022-06-08T22:16:43Z</time>
      </trkpt>
      <trkpt lat="44.30879" lon="6.5628">
        <ele>2118</ele>
        <time>2022-06-08T22:16:46Z</time>
      </trkpt>
      <trkpt lat="44.30863" lon="6.56273">
        <ele>2109</ele>
        <time>2022-06-08T22:16:50Z</time>
      </trkpt>
      <trkpt lat="44.30857" lon="6.56275">
        <ele>2106</ele>
        <time>2022-06-08T22:16:52Z</time>
      </trkpt>
      <trkpt lat="44.30839" lon="6.56289">
        <ele>2099</ele>
        <time>2022-06-08T22:16:57Z</time>
      </trkpt>
      <trkpt lat="44.30831" lon="6.5629">
        <ele>2096</ele>
        <time>2022-06-08T22:16:58Z</time>
      </trkpt>
      <trkpt lat="44.30825" lon="6.56288">
        <ele>2094</ele>
        <time>2022-06-08T22:17:00Z</time>
      </trkpt>
      <trkpt lat="44.30799" lon="6.56262">
        <ele>2079</ele>
        <time>2022-06-08T22:17:07Z</time>
      </trkpt>
      <trkpt lat="44.30813" lon="6.56251">
        <ele>2083</ele>
        <time>2022-06-08T22:17:11Z</time>
      </trkpt>
      <trkpt lat="44.30815" lon="6.56227">
        <ele>2078</ele>
        <time>2022-06-08T22:17:15Z</time>
      </trkpt>
      <trkpt lat="44.30826" lon="6.562">
        <ele>2077</ele>
        <time>2022-06-08T22:17:20Z</time>
      </trkpt>
      <trkpt lat="44.30824" lon="6.56196">
        <ele>2075</ele>
        <time>2022-06-08T22:17:21Z</time>
      </trkpt>
      <trkpt lat="44.30808" lon="6.56217">
        <ele>2073</ele>
        <time>2022-06-08T22:17:26Z</time>
      </trkpt>
      <trkpt lat="44.308" lon="6.56234">
        <ele>2074</ele>
        <time>2022-06-08T22:17:30Z</time>
      </trkpt>
      <trkpt lat="44.30771" lon="6.56245">
        <ele>2064</ele>
        <time>2022-06-08T22:17:37Z</time>
      </trkpt>
      <trkpt lat="44.30773" lon="6.56218">
        <ele>2059</ele>
        <time>2022-06-08T22:17:41Z</time>
      </trkpt>
      <trkpt lat="44.30768" lon="6.56208">
        <ele>2054</ele>
        <time>2022-06-08T22:17:43Z</time>
      </trkpt>
      <trkpt lat="44.30745" lon="6.56177">
        <ele>2039</ele>
        <time>2022-06-08T22:17:51Z</time>
      </trkpt>
      <trkpt lat="44.30743" lon="6.56166">
        <ele>2036</ele>
        <time>2022-06-08T22:17:53Z</time>
      </trkpt>
      <trkpt lat="44.30748" lon="6.56147">
        <ele>2032</ele>
        <time>2022-06-08T22:17:56Z</time>
      </trkpt>
      <trkpt lat="44.30749" lon="6.56126">
        <ele>2027</ele>
        <time>2022-06-08T22:18:00Z</time>
      </trkpt>
      <trkpt lat="44.3074" lon="6.56123">
        <ele>2024</ele>
        <time>2022-06-08T22:18:02Z</time>
      </trkpt>
      <trkpt lat="44.30719" lon="6.56122">
        <ele>2017</ele>
        <time>2022-06-08T22:18:07Z</time>
      </trkpt>
      <trkpt lat="44.30701" lon="6.56102">
        <ele>2006</ele>
        <time>2022-06-08T22:18:12Z</time>
      </trkpt>
      <trkpt lat="44.30698" lon="6.56098">
        <ele>2004</ele>
        <time>2022-06-08T22:18:13Z</time>
      </trkpt>
      <trkpt lat="44.30693" lon="6.56078">
        <ele>1999</ele>
        <time>2022-06-08T22:18:16Z</time>
      </trkpt>
      <trkpt lat="44.30681" lon="6.5606">
        <ele>1994</ele>
        <time>2022-06-08T22:18:21Z</time>
      </trkpt>
      <trkpt lat="44.30667" lon="6.5602">
        <ele>1987</ele>
        <time>2022-06-08T22:18:28Z</time>
      </trkpt>
      <trkpt lat="44.30659" lon="6.56013">
        <ele>1984</ele>
        <time>2022-06-08T22:18:30Z</time>
      </trkpt>
      <trkpt lat="44.30661" lon="6.56013">
        <ele>1985</ele>
        <time>2022-06-08T22:18:31Z</time>
      </trkpt>
      <trkpt lat="44.30657" lon="6.56008">
        <ele>1983</ele>
        <time>2022-06-08T22:18:32Z</time>
      </trkpt>
      <trkpt lat="44.30662" lon="6.55985">
        <ele>1983</ele>
        <time>2022-06-08T22:18:36Z</time>
      </trkpt>
      <trkpt lat="44.30649" lon="6.55987">
        <ele>1980</ele>
        <time>2022-06-08T22:18:39Z</time>
      </trkpt>
      <trkpt lat="44.30645" lon="6.55991">
        <ele>1980</ele>
        <time>2022-06-08T22:18:40Z</time>
      </trkpt>
      <trkpt lat="44.30643" lon="6.55988">
        <ele>1979</ele>
        <time>2022-06-08T22:18:41Z</time>
      </trkpt>
      <trkpt lat="44.30648" lon="6.55991">
        <ele>1980</ele>
        <time>2022-06-08T22:18:42Z</time>
      </trkpt>
      <trkpt lat="44.30644" lon="6.5599">
        <ele>1980</ele>
        <time>2022-06-08T22:18:43Z</time>
      </trkpt>
      <trkpt lat="44.30643" lon="6.55994">
        <ele>1979</ele>
        <time>2022-06-08T22:18:44Z</time>
      </trkpt>
      <trkpt lat="44.30648" lon="6.56">
        <ele>1981</ele>
        <time>2022-06-08T22:18:45Z</time>
      </trkpt>
      <trkpt lat="44.30647" lon="6.56006">
        <ele>1981</ele>
        <time>2022-06-08T22:18:46Z</time>
      </trkpt>
      <trkpt lat="44.30619" lon="6.56037">
        <ele>1977</ele>
        <time>2022-06-08T22:18:55Z</time>
      </trkpt>
      <trkpt lat="44.30589" lon="6.5606">
        <ele>1972</ele>
        <time>2022-06-08T22:19:03Z</time>
      </trkpt>
      <trkpt lat="44.30576" lon="6.56079">
        <ele>1971</ele>
        <time>2022-06-08T22:19:07Z</time>
      </trkpt>
      <trkpt lat="44.30564" lon="6.56088">
        <ele>1969</ele>
        <time>2022-06-08T22:19:10Z</time>
      </trkpt>
      <trkpt lat="44.30546" lon="6.56096">
        <ele>1965</ele>
        <time>2022-06-08T22:19:15Z</time>
      </trkpt>
      <trkpt lat="44.30515" lon="6.56142">
        <ele>1960</ele>
        <time>2022-06-08T22:19:25Z</time>
      </trkpt>
      <trkpt lat="44.30472" lon="6.56172">
        <ele>1950</ele>
        <time>2022-06-08T22:19:36Z</time>
      </trkpt>
      <trkpt lat="44.30445" lon="6.56195">
        <ele>1945</ele>
        <time>2022-06-08T22:19:44Z</time>
      </trkpt>
      <trkpt lat="44.30416" lon="6.56226">
        <ele>1939</ele>
        <time>2022-06-08T22:19:52Z</time>
      </trkpt>
      <trkpt lat="44.30397" lon="6.56238">
        <ele>1935</ele>
        <time>2022-06-08T22:19:57Z</time>
      </trkpt>
      <trkpt lat="44.30383" lon="6.56243">
        <ele>1931</ele>
        <time>2022-06-08T22:20:01Z</time>
      </trkpt>
      <trkpt lat="44.30353" lon="6.56268">
        <ele>1925</ele>
        <time>2022-06-08T22:20:09Z</time>
      </trkpt>
      <trkpt lat="44.30333" lon="6.56302">
        <ele>1923</ele>
        <time>2022-06-08T22:20:16Z</time>
      </trkpt>
      <trkpt lat="44.30321" lon="6.56337">
        <ele>1924</ele>
        <time>2022-06-08T22:20:23Z</time>
      </trkpt>
      <trkpt lat="44.30293" lon="6.56378">
        <ele>1919</ele>
        <time>2022-06-08T22:20:32Z</time>
      </trkpt>
      <trkpt lat="44.3026" lon="6.56439">
        <ele>1914</ele>
        <time>2022-06-08T22:20:45Z</time>
      </trkpt>
      <trkpt lat="44.30237" lon="6.56473">
        <ele>1912</ele>
        <time>2022-06-08T22:20:53Z</time>
      </trkpt>
      <trkpt lat="44.30199" lon="6.56508">
        <ele>1908</ele>
        <time>2022-06-08T22:21:03Z</time>
      </trkpt>
      <trkpt lat="44.30139" lon="6.5655">
        <ele>1899</ele>
        <time>2022-06-08T22:21:19Z</time>
      </trkpt>
      <trkpt lat="44.30121" lon="6.56579">
        <ele>1898</ele>
        <time>2022-06-08T22:21:25Z</time>
      </trkpt>
      <trkpt lat="44.30115" lon="6.56585">
        <ele>1897</ele>
        <time>2022-06-08T22:21:27Z</time>
      </trkpt>
      <trkpt lat="44.30055" lon="6.56613">
        <ele>1886</ele>
        <time>2022-06-08T22:21:42Z</time>
      </trkpt>
      <trkpt lat="44.3" lon="6.56652">
        <ele>1875</ele>
        <time>2022-06-08T22:21:56Z</time>
      </trkpt>
      <trkpt lat="44.29984" lon="6.56666">
        <ele>1874</ele>
        <time>2022-06-08T22:22:01Z</time>
      </trkpt>
      <trkpt lat="44.29976" lon="6.5668">
        <ele>1874</ele>
        <time>2022-06-08T22:22:04Z</time>
      </trkpt>
      <trkpt lat="44.29972" lon="6.56703">
        <ele>1875</ele>
        <time>2022-06-08T22:22:08Z</time>
      </trkpt>
      <trkpt lat="44.29959" lon="6.56719">
        <ele>1874</ele>
        <time>2022-06-08T22:22:12Z</time>
      </trkpt>
      <trkpt lat="44.29955" lon="6.56718">
        <ele>1874</ele>
        <time>2022-06-08T22:22:13Z</time>
      </trkpt>
      <trkpt lat="44.29951" lon="6.56713">
        <ele>1872</ele>
        <time>2022-06-08T22:22:14Z</time>
      </trkpt>
      <trkpt lat="44.29945" lon="6.56712">
        <ele>1871</ele>
        <time>2022-06-08T22:22:15Z</time>
      </trkpt>
      <trkpt lat="44.29944" lon="6.56715">
        <ele>1871</ele>
        <time>2022-06-08T22:22:16Z</time>
      </trkpt>
      <trkpt lat="44.29934" lon="6.56717">
        <ele>1869</ele>
        <time>2022-06-08T22:22:18Z</time>
      </trkpt>
      <trkpt lat="44.29933" lon="6.56714">
        <ele>1869</ele>
        <time>2022-06-08T22:22:19Z</time>
      </trkpt>
      <trkpt lat="44.29935" lon="6.56714">
        <ele>1869</ele>
        <time>2022-06-08T22:22:19Z</time>
      </trkpt>
      <trkpt lat="44.29933" lon="6.56713">
        <ele>1869</ele>
        <time>2022-06-08T22:22:20Z</time>
      </trkpt>
      <trkpt lat="44.29932" lon="6.56725">
        <ele>1870</ele>
        <time>2022-06-08T22:22:22Z</time>
      </trkpt>
      <trkpt lat="44.29918" lon="6.56758">
        <ele>1870</ele>
        <time>2022-06-08T22:22:28Z</time>
      </trkpt>
      <trkpt lat="44.29904" lon="6.56775">
        <ele>1870</ele>
        <time>2022-06-08T22:22:32Z</time>
      </trkpt>
      <trkpt lat="44.29856" lon="6.56804">
        <ele>1864</ele>
        <time>2022-06-08T22:22:45Z</time>
      </trkpt>
      <trkpt lat="44.29817" lon="6.56833">
        <ele>1861</ele>
        <time>2022-06-08T22:22:55Z</time>
      </trkpt>
      <trkpt lat="44.29769" lon="6.56883">
        <ele>1860</ele>
        <time>2022-06-08T22:23:09Z</time>
      </trkpt>
      <trkpt lat="44.29768" lon="6.56881">
        <ele>1860</ele>
        <time>2022-06-08T22:23:09Z</time>
      </trkpt>
      <trkpt lat="44.29773" lon="6.56872">
        <ele>1860</ele>
        <time>2022-06-08T22:23:11Z</time>
      </trkpt>
      <trkpt lat="44.29772" lon="6.56857">
        <ele>1859</ele>
        <time>2022-06-08T22:23:14Z</time>
      </trkpt>
      <trkpt lat="44.29788" lon="6.56833">
        <ele>1858</ele>
        <time>2022-06-08T22:23:19Z</time>
      </trkpt>
      <trkpt lat="44.29784" lon="6.5682">
        <ele>1857</ele>
        <time>2022-06-08T22:23:22Z</time>
      </trkpt>
      <trkpt lat="44.29788" lon="6.5683">
        <ele>1858</ele>
        <time>2022-06-08T22:23:24Z</time>
      </trkpt>
      <trkpt lat="44.29768" lon="6.56881">
        <ele>1860</ele>
        <time>2022-06-08T22:23:33Z</time>
      </trkpt>
      <trkpt lat="44.29731" lon="6.56907">
        <ele>1857</ele>
        <time>2022-06-08T22:23:43Z</time>
      </trkpt>
      <trkpt lat="44.29651" lon="6.56953">
        <ele>1848</ele>
        <time>2022-06-08T22:24:03Z</time>
      </trkpt>
      <trkpt lat="44.29634" lon="6.56966">
        <ele>1847</ele>
        <time>2022-06-08T22:24:08Z</time>
      </trkpt>
      <trkpt lat="44.29627" lon="6.56968">
        <ele>1846</ele>
        <time>2022-06-08T22:24:09Z</time>
      </trkpt>
      <trkpt lat="44.29615" lon="6.56963">
        <ele>1844</ele>
        <time>2022-06-08T22:24:12Z</time>
      </trkpt>
      <trkpt lat="44.29587" lon="6.56926">
        <ele>1837</ele>
        <time>2022-06-08T22:24:21Z</time>
      </trkpt>
      <trkpt lat="44.29572" lon="6.5692">
        <ele>1835</ele>
        <time>2022-06-08T22:24:25Z</time>
      </trkpt>
      <trkpt lat="44.2955" lon="6.56922">
        <ele>1834</ele>
        <time>2022-06-08T22:24:30Z</time>
      </trkpt>
      <trkpt lat="44.29526" lon="6.56931">
        <ele>1834</ele>
        <time>2022-06-08T22:24:36Z</time>
      </trkpt>
      <trkpt lat="44.29459" lon="6.5694">
        <ele>1828</ele>
        <time>2022-06-08T22:24:52Z</time>
      </trkpt>
      <trkpt lat="44.29348" lon="6.56949">
        <ele>1817</ele>
        <time>2022-06-08T22:25:18Z</time>
      </trkpt>
      <trkpt lat="44.29331" lon="6.56945">
        <ele>1814</ele>
        <time>2022-06-08T22:25:22Z</time>
      </trkpt>
      <trkpt lat="44.29322" lon="6.56947">
        <ele>1814</ele>
        <time>2022-06-08T22:25:24Z</time>
      </trkpt>
      <trkpt lat="44.29314" lon="6.56952">
        <ele>1814</ele>
        <time>2022-06-08T22:25:26Z</time>
      </trkpt>
      <trkpt lat="44.2929" lon="6.5699">
        <ele>1816</ele>
        <time>2022-06-08T22:25:34Z</time>
      </trkpt>
      <trkpt lat="44.29274" lon="6.57003">
        <ele>1816</ele>
        <time>2022-06-08T22:25:39Z</time>
      </trkpt>
      <trkpt lat="44.29256" lon="6.57008">
        <ele>1814</ele>
        <time>2022-06-08T22:25:43Z</time>
      </trkpt>
      <trkpt lat="44.29246" lon="6.57008">
        <ele>1812</ele>
        <time>2022-06-08T22:25:45Z</time>
      </trkpt>
      <trkpt lat="44.29227" lon="6.57002">
        <ele>1809</ele>
        <time>2022-06-08T22:25:50Z</time>
      </trkpt>
      <trkpt lat="44.29218" lon="6.57002">
        <ele>1808</ele>
        <time>2022-06-08T22:25:52Z</time>
      </trkpt>
      <trkpt lat="44.29208" lon="6.57004">
        <ele>1807</ele>
        <time>2022-06-08T22:25:54Z</time>
      </trkpt>
      <trkpt lat="44.292" lon="6.57009">
        <ele>1807</ele>
        <time>2022-06-08T22:25:56Z</time>
      </trkpt>
      <trkpt lat="44.29113" lon="6.57119">
        <ele>1807</ele>
        <time>2022-06-08T22:26:24Z</time>
      </trkpt>
      <trkpt lat="44.29074" lon="6.57161">
        <ele>1804</ele>
        <time>2022-06-08T22:26:35Z</time>
      </trkpt>
      <trkpt lat="44.29037" lon="6.57184">
        <ele>1801</ele>
        <time>2022-06-08T22:26:45Z</time>
      </trkpt>
      <trkpt lat="44.2898" lon="6.572">
        <ele>1794</ele>
        <time>2022-06-08T22:26:58Z</time>
      </trkpt>
      <trkpt lat="44.28972" lon="6.57205">
        <ele>1794</ele>
        <time>2022-06-08T22:27:00Z</time>
      </trkpt>
      <trkpt lat="44.2895" lon="6.57227">
        <ele>1796</ele>
        <time>2022-06-08T22:27:07Z</time>
      </trkpt>
      <trkpt lat="44.28943" lon="6.57224">
        <ele>1794</ele>
        <time>2022-06-08T22:27:08Z</time>
      </trkpt>
      <trkpt lat="44.28943" lon="6.57215">
        <ele>1793</ele>
        <time>2022-06-08T22:27:10Z</time>
      </trkpt>
      <trkpt lat="44.28968" lon="6.57184">
        <ele>1789</ele>
        <time>2022-06-08T22:27:18Z</time>
      </trkpt>
      <trkpt lat="44.28999" lon="6.57154">
        <ele>1788</ele>
        <time>2022-06-08T22:27:26Z</time>
      </trkpt>
      <trkpt lat="44.29032" lon="6.57097">
        <ele>1787</ele>
        <time>2022-06-08T22:27:39Z</time>
      </trkpt>
      <trkpt lat="44.29107" lon="6.56986">
        <ele>1789</ele>
        <time>2022-06-08T22:28:04Z</time>
      </trkpt>
      <trkpt lat="44.29112" lon="6.5697">
        <ele>1790</ele>
        <time>2022-06-08T22:28:07Z</time>
      </trkpt>
      <trkpt lat="44.29115" lon="6.56946">
        <ele>1790</ele>
        <time>2022-06-08T22:28:11Z</time>
      </trkpt>
      <trkpt lat="44.29114" lon="6.56929">
        <ele>1790</ele>
        <time>2022-06-08T22:28:14Z</time>
      </trkpt>
      <trkpt lat="44.29107" lon="6.56916">
        <ele>1789</ele>
        <time>2022-06-08T22:28:17Z</time>
      </trkpt>
      <trkpt lat="44.29102" lon="6.56912">
        <ele>1789</ele>
        <time>2022-06-08T22:28:18Z</time>
      </trkpt>
      <trkpt lat="44.29097" lon="6.5691">
        <ele>1789</ele>
        <time>2022-06-08T22:28:19Z</time>
      </trkpt>
      <trkpt lat="44.29041" lon="6.5691">
        <ele>1789</ele>
        <time>2022-06-08T22:28:32Z</time>
      </trkpt>
      <trkpt lat="44.29034" lon="6.56905">
        <ele>1789</ele>
        <time>2022-06-08T22:28:34Z</time>
      </trkpt>
      <trkpt lat="44.29025" lon="6.56893">
        <ele>1790</ele>
        <time>2022-06-08T22:28:37Z</time>
      </trkpt>
      <trkpt lat="44.29011" lon="6.56869">
        <ele>1793</ele>
        <time>2022-06-08T22:28:42Z</time>
      </trkpt>
      <trkpt lat="44.28989" lon="6.56876">
        <ele>1795</ele>
        <time>2022-06-08T22:28:48Z</time>
      </trkpt>
      <trkpt lat="44.28893" lon="6.56951">
        <ele>1791</ele>
        <time>2022-06-08T22:29:13Z</time>
      </trkpt>
      <trkpt lat="44.28857" lon="6.56976">
        <ele>1788</ele>
        <time>2022-06-08T22:29:23Z</time>
      </trkpt>
      <trkpt lat="44.28783" lon="6.5704">
        <ele>1782</ele>
        <time>2022-06-08T22:29:43Z</time>
      </trkpt>
      <trkpt lat="44.28769" lon="6.57053">
        <ele>1780</ele>
        <time>2022-06-08T22:29:47Z</time>
      </trkpt>
      <trkpt lat="44.28709" lon="6.57131">
        <ele>1773</ele>
        <time>2022-06-08T22:30:06Z</time>
      </trkpt>
      <trkpt lat="44.28645" lon="6.57192">
        <ele>1772</ele>
        <time>2022-06-08T22:30:24Z</time>
      </trkpt>
      <trkpt lat="44.28575" lon="6.57235">
        <ele>1765</ele>
        <time>2022-06-08T22:30:42Z</time>
      </trkpt>
      <trkpt lat="44.28517" lon="6.57254">
        <ele>1761</ele>
        <time>2022-06-08T22:30:56Z</time>
      </trkpt>
      <trkpt lat="44.28502" lon="6.5725">
        <ele>1760</ele>
        <time>2022-06-08T22:30:59Z</time>
      </trkpt>
      <trkpt lat="44.28463" lon="6.57232">
        <ele>1758</ele>
        <time>2022-06-08T22:31:09Z</time>
      </trkpt>
      <trkpt lat="44.2842" lon="6.57221">
        <ele>1756</ele>
        <time>2022-06-08T22:31:19Z</time>
      </trkpt>
      <trkpt lat="44.28384" lon="6.57224">
        <ele>1755</ele>
        <time>2022-06-08T22:31:28Z</time>
      </trkpt>
      <trkpt lat="44.28375" lon="6.57228">
        <ele>1754</ele>
        <time>2022-06-08T22:31:30Z</time>
      </trkpt>
      <trkpt lat="44.28326" lon="6.57264">
        <ele>1756</ele>
        <time>2022-06-08T22:31:43Z</time>
      </trkpt>
      <trkpt lat="44.28239" lon="6.57355">
        <ele>1758</ele>
        <time>2022-06-08T22:32:08Z</time>
      </trkpt>
      <trkpt lat="44.28164" lon="6.57388">
        <ele>1750</ele>
        <time>2022-06-08T22:32:27Z</time>
      </trkpt>
      <trkpt lat="44.28064" lon="6.5742">
        <ele>1735</ele>
        <time>2022-06-08T22:32:51Z</time>
      </trkpt>
      <trkpt lat="44.28045" lon="6.5743">
        <ele>1734</ele>
        <time>2022-06-08T22:32:55Z</time>
      </trkpt>
      <trkpt lat="44.28011" lon="6.57462">
        <ele>1736</ele>
        <time>2022-06-08T22:33:05Z</time>
      </trkpt>
      <trkpt lat="44.27988" lon="6.57492">
        <ele>1738</ele>
        <time>2022-06-08T22:33:12Z</time>
      </trkpt>
      <trkpt lat="44.27953" lon="6.57525">
        <ele>1735</ele>
        <time>2022-06-08T22:33:22Z</time>
      </trkpt>
      <trkpt lat="44.27919" lon="6.57566">
        <ele>1732</ele>
        <time>2022-06-08T22:33:33Z</time>
      </trkpt>
      <trkpt lat="44.27857" lon="6.57657">
        <ele>1726</ele>
        <time>2022-06-08T22:33:54Z</time>
      </trkpt>
      <trkpt lat="44.27822" lon="6.57715">
        <ele>1720</ele>
        <time>2022-06-08T22:34:06Z</time>
      </trkpt>
      <trkpt lat="44.2779" lon="6.57776">
        <ele>1721</ele>
        <time>2022-06-08T22:34:19Z</time>
      </trkpt>
      <trkpt lat="44.27727" lon="6.57837">
        <ele>1714</ele>
        <time>2022-06-08T22:34:37Z</time>
      </trkpt>
      <trkpt lat="44.27707" lon="6.57846">
        <ele>1712</ele>
        <time>2022-06-08T22:34:42Z</time>
      </trkpt>
      <trkpt lat="44.27666" lon="6.57853">
        <ele>1707</ele>
        <time>2022-06-08T22:34:51Z</time>
      </trkpt>
      <trkpt lat="44.27656" lon="6.57859">
        <ele>1706</ele>
        <time>2022-06-08T22:34:54Z</time>
      </trkpt>
      <trkpt lat="44.2765" lon="6.57866">
        <ele>1706</ele>
        <time>2022-06-08T22:34:56Z</time>
      </trkpt>
      <trkpt lat="44.27635" lon="6.57899">
        <ele>1709</ele>
        <time>2022-06-08T22:35:02Z</time>
      </trkpt>
      <trkpt lat="44.27628" lon="6.57908">
        <ele>1711</ele>
        <time>2022-06-08T22:35:04Z</time>
      </trkpt>
      <trkpt lat="44.2762" lon="6.57912">
        <ele>1711</ele>
        <time>2022-06-08T22:35:06Z</time>
      </trkpt>
      <trkpt lat="44.27611" lon="6.57911">
        <ele>1711</ele>
        <time>2022-06-08T22:35:09Z</time>
      </trkpt>
      <trkpt lat="44.27554" lon="6.57866">
        <ele>1695</ele>
        <time>2022-06-08T22:35:24Z</time>
      </trkpt>
      <trkpt lat="44.27544" lon="6.57863">
        <ele>1693</ele>
        <time>2022-06-08T22:35:26Z</time>
      </trkpt>
      <trkpt lat="44.27524" lon="6.57863">
        <ele>1691</ele>
        <time>2022-06-08T22:35:31Z</time>
      </trkpt>
      <trkpt lat="44.27507" lon="6.57872">
        <ele>1692</ele>
        <time>2022-06-08T22:35:35Z</time>
      </trkpt>
      <trkpt lat="44.27499" lon="6.5788">
        <ele>1693</ele>
        <time>2022-06-08T22:35:37Z</time>
      </trkpt>
      <trkpt lat="44.27454" lon="6.57941">
        <ele>1705</ele>
        <time>2022-06-08T22:35:52Z</time>
      </trkpt>
      <trkpt lat="44.27447" lon="6.57947">
        <ele>1706</ele>
        <time>2022-06-08T22:35:54Z</time>
      </trkpt>
      <trkpt lat="44.27431" lon="6.57955">
        <ele>1705</ele>
        <time>2022-06-08T22:35:58Z</time>
      </trkpt>
      <trkpt lat="44.27415" lon="6.57959">
        <ele>1704</ele>
        <time>2022-06-08T22:36:02Z</time>
      </trkpt>
      <trkpt lat="44.27369" lon="6.57964">
        <ele>1702</ele>
        <time>2022-06-08T22:36:13Z</time>
      </trkpt>
      <trkpt lat="44.27346" lon="6.57956">
        <ele>1699</ele>
        <time>2022-06-08T22:36:18Z</time>
      </trkpt>
      <trkpt lat="44.27284" lon="6.57907">
        <ele>1684</ele>
        <time>2022-06-08T22:36:35Z</time>
      </trkpt>
      <trkpt lat="44.27267" lon="6.57903">
        <ele>1680</ele>
        <time>2022-06-08T22:36:39Z</time>
      </trkpt>
      <trkpt lat="44.2725" lon="6.57905">
        <ele>1678</ele>
        <time>2022-06-08T22:36:43Z</time>
      </trkpt>
      <trkpt lat="44.27241" lon="6.57908">
        <ele>1677</ele>
        <time>2022-06-08T22:36:45Z</time>
      </trkpt>
      <trkpt lat="44.27217" lon="6.57923">
        <ele>1676</ele>
        <time>2022-06-08T22:36:51Z</time>
      </trkpt>
      <trkpt lat="44.27162" lon="6.57993">
        <ele>1683</ele>
        <time>2022-06-08T22:37:08Z</time>
      </trkpt>
      <trkpt lat="44.27144" lon="6.58003">
        <ele>1684</ele>
        <time>2022-06-08T22:37:13Z</time>
      </trkpt>
      <trkpt lat="44.27047" lon="6.58027">
        <ele>1678</ele>
        <time>2022-06-08T22:37:36Z</time>
      </trkpt>
      <trkpt lat="44.26958" lon="6.58043">
        <ele>1676</ele>
        <time>2022-06-08T22:37:57Z</time>
      </trkpt>
      <trkpt lat="44.26836" lon="6.58056">
        <ele>1663</ele>
        <time>2022-06-08T22:38:25Z</time>
      </trkpt>
      <trkpt lat="44.26789" lon="6.58069">
        <ele>1656</ele>
        <time>2022-06-08T22:38:37Z</time>
      </trkpt>
      <trkpt lat="44.2674" lon="6.58071">
        <ele>1647</ele>
        <time>2022-06-08T22:38:48Z</time>
      </trkpt>
      <trkpt lat="44.2673" lon="6.58074">
        <ele>1646</ele>
        <time>2022-06-08T22:38:50Z</time>
      </trkpt>
      <trkpt lat="44.26712" lon="6.58084">
        <ele>1645</ele>
        <time>2022-06-08T22:38:55Z</time>
      </trkpt>
      <trkpt lat="44.26656" lon="6.58127">
        <ele>1644</ele>
        <time>2022-06-08T22:39:10Z</time>
      </trkpt>
      <trkpt lat="44.26538" lon="6.5821">
        <ele>1639</ele>
        <time>2022-06-08T22:39:41Z</time>
      </trkpt>
      <trkpt lat="44.26488" lon="6.58235">
        <ele>1637</ele>
        <time>2022-06-08T22:39:53Z</time>
      </trkpt>
      <trkpt lat="44.26435" lon="6.58247">
        <ele>1633</ele>
        <time>2022-06-08T22:40:06Z</time>
      </trkpt>
      <trkpt lat="44.26384" lon="6.58262">
        <ele>1626</ele>
        <time>2022-06-08T22:40:18Z</time>
      </trkpt>
      <trkpt lat="44.26334" lon="6.58281">
        <ele>1616</ele>
        <time>2022-06-08T22:40:30Z</time>
      </trkpt>
      <trkpt lat="44.26318" lon="6.58296">
        <ele>1614</ele>
        <time>2022-06-08T22:40:34Z</time>
      </trkpt>
      <trkpt lat="44.26311" lon="6.58315">
        <ele>1615</ele>
        <time>2022-06-08T22:40:38Z</time>
      </trkpt>
      <trkpt lat="44.26312" lon="6.58326">
        <ele>1617</ele>
        <time>2022-06-08T22:40:40Z</time>
      </trkpt>
      <trkpt lat="44.26323" lon="6.58359">
        <ele>1622</ele>
        <time>2022-06-08T22:40:46Z</time>
      </trkpt>
      <trkpt lat="44.26323" lon="6.58384">
        <ele>1622</ele>
        <time>2022-06-08T22:40:50Z</time>
      </trkpt>
      <trkpt lat="44.26319" lon="6.58396">
        <ele>1621</ele>
        <time>2022-06-08T22:40:52Z</time>
      </trkpt>
      <trkpt lat="44.26252" lon="6.58472">
        <ele>1615</ele>
        <time>2022-06-08T22:41:13Z</time>
      </trkpt>
      <trkpt lat="44.26152" lon="6.58548">
        <ele>1608</ele>
        <time>2022-06-08T22:41:39Z</time>
      </trkpt>
      <trkpt lat="44.26125" lon="6.58572">
        <ele>1604</ele>
        <time>2022-06-08T22:41:47Z</time>
      </trkpt>
      <trkpt lat="44.26075" lon="6.58647">
        <ele>1602</ele>
        <time>2022-06-08T22:42:04Z</time>
      </trkpt>
      <trkpt lat="44.2602" lon="6.58696">
        <ele>1589</ele>
        <time>2022-06-08T22:42:19Z</time>
      </trkpt>
      <trkpt lat="44.26" lon="6.5873">
        <ele>1585</ele>
        <time>2022-06-08T22:42:26Z</time>
      </trkpt>
      <trkpt lat="44.2598" lon="6.58815">
        <ele>1591</ele>
        <time>2022-06-08T22:42:41Z</time>
      </trkpt>
      <trkpt lat="44.25967" lon="6.58841">
        <ele>1590</ele>
        <time>2022-06-08T22:42:47Z</time>
      </trkpt>
      <trkpt lat="44.25959" lon="6.5885">
        <ele>1589</ele>
        <time>2022-06-08T22:42:49Z</time>
      </trkpt>
      <trkpt lat="44.25938" lon="6.58863">
        <ele>1585</ele>
        <time>2022-06-08T22:42:54Z</time>
      </trkpt>
      <trkpt lat="44.2588" lon="6.58877">
        <ele>1573</ele>
        <time>2022-06-08T22:43:08Z</time>
      </trkpt>
      <trkpt lat="44.25861" lon="6.58895">
        <ele>1571</ele>
        <time>2022-06-08T22:43:13Z</time>
      </trkpt>
      <trkpt lat="44.25852" lon="6.58907">
        <ele>1570</ele>
        <time>2022-06-08T22:43:16Z</time>
      </trkpt>
      <trkpt lat="44.25845" lon="6.58921">
        <ele>1570</ele>
        <time>2022-06-08T22:43:19Z</time>
      </trkpt>
      <trkpt lat="44.25836" lon="6.58949">
        <ele>1570</ele>
        <time>2022-06-08T22:43:24Z</time>
      </trkpt>
      <trkpt lat="44.25827" lon="6.58995">
        <ele>1571</ele>
        <time>2022-06-08T22:43:32Z</time>
      </trkpt>
      <trkpt lat="44.25819" lon="6.59024">
        <ele>1572</ele>
        <time>2022-06-08T22:43:38Z</time>
      </trkpt>
      <trkpt lat="44.25813" lon="6.59037">
        <ele>1572</ele>
        <time>2022-06-08T22:43:40Z</time>
      </trkpt>
      <trkpt lat="44.2575" lon="6.59136">
        <ele>1567</ele>
        <time>2022-06-08T22:44:02Z</time>
      </trkpt>
      <trkpt lat="44.25722" lon="6.59175">
        <ele>1566</ele>
        <time>2022-06-08T22:44:12Z</time>
      </trkpt>
      <trkpt lat="44.25692" lon="6.59209">
        <ele>1561</ele>
        <time>2022-06-08T22:44:21Z</time>
      </trkpt>
      <trkpt lat="44.25634" lon="6.59329">
        <ele>1559</ele>
        <time>2022-06-08T22:44:45Z</time>
      </trkpt>
      <trkpt lat="44.2554" lon="6.59454">
        <ele>1549</ele>
        <time>2022-06-08T22:45:15Z</time>
      </trkpt>
      <trkpt lat="44.25489" lon="6.59547">
        <ele>1552</ele>
        <time>2022-06-08T22:45:35Z</time>
      </trkpt>
      <trkpt lat="44.25451" lon="6.59592">
        <ele>1549</ele>
        <time>2022-06-08T22:45:46Z</time>
      </trkpt>
      <trkpt lat="44.25435" lon="6.59602">
        <ele>1544</ele>
        <time>2022-06-08T22:45:50Z</time>
      </trkpt>
      <trkpt lat="44.25411" lon="6.59612">
        <ele>1536</ele>
        <time>2022-06-08T22:45:56Z</time>
      </trkpt>
      <trkpt lat="44.25404" lon="6.59619">
        <ele>1536</ele>
        <time>2022-06-08T22:45:58Z</time>
      </trkpt>
      <trkpt lat="44.25375" lon="6.59663">
        <ele>1538</ele>
        <time>2022-06-08T22:46:08Z</time>
      </trkpt>
      <trkpt lat="44.25363" lon="6.59693">
        <ele>1540</ele>
        <time>2022-06-08T22:46:14Z</time>
      </trkpt>
      <trkpt lat="44.25357" lon="6.59702">
        <ele>1539</ele>
        <time>2022-06-08T22:46:16Z</time>
      </trkpt>
      <trkpt lat="44.25324" lon="6.59737">
        <ele>1532</ele>
        <time>2022-06-08T22:46:26Z</time>
      </trkpt>
      <trkpt lat="44.2532" lon="6.59747">
        <ele>1532</ele>
        <time>2022-06-08T22:46:28Z</time>
      </trkpt>
      <trkpt lat="44.25319" lon="6.59759">
        <ele>1533</ele>
        <time>2022-06-08T22:46:30Z</time>
      </trkpt>
      <trkpt lat="44.25325" lon="6.59779">
        <ele>1538</ele>
        <time>2022-06-08T22:46:33Z</time>
      </trkpt>
      <trkpt lat="44.25346" lon="6.59823">
        <ele>1551</ele>
        <time>2022-06-08T22:46:42Z</time>
      </trkpt>
      <trkpt lat="44.25341" lon="6.59841">
        <ele>1551</ele>
        <time>2022-06-08T22:46:45Z</time>
      </trkpt>
      <trkpt lat="44.25336" lon="6.59845">
        <ele>1550</ele>
        <time>2022-06-08T22:46:47Z</time>
      </trkpt>
      <trkpt lat="44.2533" lon="6.59846">
        <ele>1549</ele>
        <time>2022-06-08T22:46:48Z</time>
      </trkpt>
      <trkpt lat="44.25295" lon="6.5983">
        <ele>1533</ele>
        <time>2022-06-08T22:46:57Z</time>
      </trkpt>
      <trkpt lat="44.25279" lon="6.59826">
        <ele>1527</ele>
        <time>2022-06-08T22:47:01Z</time>
      </trkpt>
      <trkpt lat="44.2527" lon="6.59828">
        <ele>1525</ele>
        <time>2022-06-08T22:47:03Z</time>
      </trkpt>
      <trkpt lat="44.25262" lon="6.59833">
        <ele>1523</ele>
        <time>2022-06-08T22:47:05Z</time>
      </trkpt>
      <trkpt lat="44.25188" lon="6.59922">
        <ele>1516</ele>
        <time>2022-06-08T22:47:28Z</time>
      </trkpt>
      <trkpt lat="44.25146" lon="6.60016">
        <ele>1524</ele>
        <time>2022-06-08T22:47:46Z</time>
      </trkpt>
      <trkpt lat="44.25134" lon="6.60032">
        <ele>1525</ele>
        <time>2022-06-08T22:47:50Z</time>
      </trkpt>
      <trkpt lat="44.2509" lon="6.60067">
        <ele>1520</ele>
        <time>2022-06-08T22:48:02Z</time>
      </trkpt>
      <trkpt lat="44.2508" lon="6.6007">
        <ele>1518</ele>
        <time>2022-06-08T22:48:04Z</time>
      </trkpt>
      <trkpt lat="44.2508" lon="6.60067">
        <ele>1517</ele>
        <time>2022-06-08T22:48:05Z</time>
      </trkpt>
      <trkpt lat="44.25083" lon="6.60068">
        <ele>1518</ele>
        <time>2022-06-08T22:48:05Z</time>
      </trkpt>
      <trkpt lat="44.25083" lon="6.60063">
        <ele>1516</ele>
        <time>2022-06-08T22:48:06Z</time>
      </trkpt>
      <trkpt lat="44.2508" lon="6.60064">
        <ele>1516</ele>
        <time>2022-06-08T22:48:07Z</time>
      </trkpt>
      <trkpt lat="44.25075" lon="6.60069">
        <ele>1516</ele>
        <time>2022-06-08T22:48:08Z</time>
      </trkpt>
      <trkpt lat="44.24941" lon="6.60149">
        <ele>1501</ele>
        <time>2022-06-08T22:48:42Z</time>
      </trkpt>
      <trkpt lat="44.24922" lon="6.60192">
        <ele>1503</ele>
        <time>2022-06-08T22:48:51Z</time>
      </trkpt>
      <trkpt lat="44.24896" lon="6.60233">
        <ele>1502</ele>
        <time>2022-06-08T22:49:00Z</time>
      </trkpt>
      <trkpt lat="44.24891" lon="6.60257">
        <ele>1504</ele>
        <time>2022-06-08T22:49:04Z</time>
      </trkpt>
      <trkpt lat="44.24892" lon="6.60283">
        <ele>1509</ele>
        <time>2022-06-08T22:49:09Z</time>
      </trkpt>
      <trkpt lat="44.24887" lon="6.60301">
        <ele>1510</ele>
        <time>2022-06-08T22:49:12Z</time>
      </trkpt>
      <trkpt lat="44.24872" lon="6.60318">
        <ele>1507</ele>
        <time>2022-06-08T22:49:16Z</time>
      </trkpt>
      <trkpt lat="44.24849" lon="6.60337">
        <ele>1502</ele>
        <time>2022-06-08T22:49:23Z</time>
      </trkpt>
      <trkpt lat="44.24752" lon="6.60454">
        <ele>1496</ele>
        <time>2022-06-08T22:49:52Z</time>
      </trkpt>
      <trkpt lat="44.24699" lon="6.60523">
        <ele>1487</ele>
        <time>2022-06-08T22:50:09Z</time>
      </trkpt>
      <trkpt lat="44.2469" lon="6.60546">
        <ele>1484</ele>
        <time>2022-06-08T22:50:14Z</time>
      </trkpt>
      <trkpt lat="44.24684" lon="6.60582">
        <ele>1484</ele>
        <time>2022-06-08T22:50:20Z</time>
      </trkpt>
      <trkpt lat="44.24685" lon="6.60617">
        <ele>1484</ele>
        <time>2022-06-08T22:50:26Z</time>
      </trkpt>
      <trkpt lat="44.24696" lon="6.60713">
        <ele>1488</ele>
        <time>2022-06-08T22:50:42Z</time>
      </trkpt>
      <trkpt lat="44.24685" lon="6.60788">
        <ele>1484</ele>
        <time>2022-06-08T22:50:55Z</time>
      </trkpt>
      <trkpt lat="44.24628" lon="6.60958">
        <ele>1480</ele>
        <time>2022-06-08T22:51:26Z</time>
      </trkpt>
      <trkpt lat="44.24617" lon="6.60998">
        <ele>1477</ele>
        <time>2022-06-08T22:51:33Z</time>
      </trkpt>
      <trkpt lat="44.24596" lon="6.61101">
        <ele>1472</ele>
        <time>2022-06-08T22:51:51Z</time>
      </trkpt>
      <trkpt lat="44.24577" lon="6.61172">
        <ele>1470</ele>
        <time>2022-06-08T22:52:04Z</time>
      </trkpt>
      <trkpt lat="44.24531" lon="6.61283">
        <ele>1466</ele>
        <time>2022-06-08T22:52:25Z</time>
      </trkpt>
      <trkpt lat="44.24499" lon="6.61375">
        <ele>1458</ele>
        <time>2022-06-08T22:52:43Z</time>
      </trkpt>
      <trkpt lat="44.24479" lon="6.6145">
        <ele>1464</ele>
        <time>2022-06-08T22:52:56Z</time>
      </trkpt>
      <trkpt lat="44.2448" lon="6.61517">
        <ele>1467</ele>
        <time>2022-06-08T22:53:07Z</time>
      </trkpt>
      <trkpt lat="44.24477" lon="6.61533">
        <ele>1466</ele>
        <time>2022-06-08T22:53:10Z</time>
      </trkpt>
      <trkpt lat="44.24469" lon="6.61546">
        <ele>1464</ele>
        <time>2022-06-08T22:53:13Z</time>
      </trkpt>
      <trkpt lat="44.24464" lon="6.6155">
        <ele>1463</ele>
        <time>2022-06-08T22:53:14Z</time>
      </trkpt>
      <trkpt lat="44.24457" lon="6.6155">
        <ele>1461</ele>
        <time>2022-06-08T22:53:16Z</time>
      </trkpt>
      <trkpt lat="44.24415" lon="6.61517">
        <ele>1453</ele>
        <time>2022-06-08T22:53:27Z</time>
      </trkpt>
      <trkpt lat="44.24405" lon="6.61516">
        <ele>1457</ele>
        <time>2022-06-08T22:53:29Z</time>
      </trkpt>
      <trkpt lat="44.24392" lon="6.61525">
        <ele>1461</ele>
        <time>2022-06-08T22:53:33Z</time>
      </trkpt>
      <trkpt lat="44.24386" lon="6.61534">
        <ele>1463</ele>
        <time>2022-06-08T22:53:35Z</time>
      </trkpt>
      <trkpt lat="44.24361" lon="6.61657">
        <ele>1461</ele>
        <time>2022-06-08T22:53:56Z</time>
      </trkpt>
      <trkpt lat="44.24357" lon="6.61712">
        <ele>1460</ele>
        <time>2022-06-08T22:54:05Z</time>
      </trkpt>
      <trkpt lat="44.24346" lon="6.61756">
        <ele>1461</ele>
        <time>2022-06-08T22:54:13Z</time>
      </trkpt>
      <trkpt lat="44.24329" lon="6.61808">
        <ele>1462</ele>
        <time>2022-06-08T22:54:23Z</time>
      </trkpt>
      <trkpt lat="44.2429" lon="6.61841">
        <ele>1466</ele>
        <time>2022-06-08T22:54:34Z</time>
      </trkpt>
      <trkpt lat="44.24256" lon="6.61846">
        <ele>1472</ele>
        <time>2022-06-08T22:54:41Z</time>
      </trkpt>
      <trkpt lat="44.24224" lon="6.61831">
        <ele>1477</ele>
        <time>2022-06-08T22:54:49Z</time>
      </trkpt>
      <trkpt lat="44.24177" lon="6.61824">
        <ele>1480</ele>
        <time>2022-06-08T22:55:00Z</time>
      </trkpt>
      <trkpt lat="44.24166" lon="6.6182">
        <ele>1482</ele>
        <time>2022-06-08T22:55:03Z</time>
      </trkpt>
      <trkpt lat="44.24165" lon="6.61817">
        <ele>1483</ele>
        <time>2022-06-08T22:55:04Z</time>
      </trkpt>
      <trkpt lat="44.24165" lon="6.61809">
        <ele>1484</ele>
        <time>2022-06-08T22:55:05Z</time>
      </trkpt>
      <trkpt lat="44.24169" lon="6.618">
        <ele>1486</ele>
        <time>2022-06-08T22:55:07Z</time>
      </trkpt>
      <trkpt lat="44.24231" lon="6.61735">
        <ele>1491</ele>
        <time>2022-06-08T22:55:25Z</time>
      </trkpt>
      <trkpt lat="44.24249" lon="6.61691">
        <ele>1493</ele>
        <time>2022-06-08T22:55:33Z</time>
      </trkpt>
      <trkpt lat="44.24251" lon="6.61643">
        <ele>1496</ele>
        <time>2022-06-08T22:55:41Z</time>
      </trkpt>
      <trkpt lat="44.24249" lon="6.61581">
        <ele>1499</ele>
        <time>2022-06-08T22:55:52Z</time>
      </trkpt>
      <trkpt lat="44.24261" lon="6.61523">
        <ele>1500</ele>
        <time>2022-06-08T22:56:02Z</time>
      </trkpt>
      <trkpt lat="44.24247" lon="6.61486">
        <ele>1503</ele>
        <time>2022-06-08T22:56:09Z</time>
      </trkpt>
      <trkpt lat="44.24207" lon="6.61486">
        <ele>1510</ele>
        <time>2022-06-08T22:56:18Z</time>
      </trkpt>
      <trkpt lat="44.2418" lon="6.61522">
        <ele>1513</ele>
        <time>2022-06-08T22:56:27Z</time>
      </trkpt>
      <trkpt lat="44.24159" lon="6.61605">
        <ele>1512</ele>
        <time>2022-06-08T22:56:42Z</time>
      </trkpt>
      <trkpt lat="44.24131" lon="6.61621">
        <ele>1515</ele>
        <time>2022-06-08T22:56:49Z</time>
      </trkpt>
      <trkpt lat="44.24087" lon="6.61622">
        <ele>1521</ele>
        <time>2022-06-08T22:56:59Z</time>
      </trkpt>
      <trkpt lat="44.24055" lon="6.61641">
        <ele>1525</ele>
        <time>2022-06-08T22:57:07Z</time>
      </trkpt>
      <trkpt lat="44.24041" lon="6.61674">
        <ele>1527</ele>
        <time>2022-06-08T22:57:14Z</time>
      </trkpt>
      <trkpt lat="44.24024" lon="6.61705">
        <ele>1528</ele>
        <time>2022-06-08T22:57:20Z</time>
      </trkpt>
      <trkpt lat="44.24022" lon="6.61706">
        <ele>1529</ele>
        <time>2022-06-08T22:57:21Z</time>
      </trkpt>
      <trkpt lat="44.24021" lon="6.61704">
        <ele>1529</ele>
        <time>2022-06-08T22:57:21Z</time>
      </trkpt>
      <trkpt lat="44.24023" lon="6.61713">
        <ele>1528</ele>
        <time>2022-06-08T22:57:23Z</time>
      </trkpt>
      <trkpt lat="44.24034" lon="6.61708">
        <ele>1526</ele>
        <time>2022-06-08T22:57:25Z</time>
      </trkpt>
      <trkpt lat="44.24038" lon="6.6171">
        <ele>1525</ele>
        <time>2022-06-08T22:57:26Z</time>
      </trkpt>
    </trkseg>
  </trk>
</gpx>